<?xml version="1.0" encoding="UTF-8" standalone="yes"?>
<gpx
 xmlns="http://www.topografix.com/GPX/1/1"
 creator="OziExplorer Version 3955n - http://www.oziexplorer.com"
 version="1.1"
 xmlns:xsi="http://www.w3.org/2001/XMLSchema-instance"
 xsi:schemaLocation="http://www.topografix.com/GPX/1/1 http://www.topografix.com/GPX/1/1/gpx.xsd">
<metadata>
 <time>2012-04-13T09:17:41Z</time>
 <bounds minlat="38.727354" minlon="-7.219216" maxlat="38.776122" maxlon="-7.168816"/>
</metadata>
<trk>
 <name>PR-BA 126 Puente Ajuda</name>
 <desc>PR-BA 126 Puente Ajuda</desc>
<trkseg>
<trkpt lat="38.7746100" lon="-7.1700600">
<ele>165.475922</ele>
<time>2007-07-29T08:28:46.001Z</time>
</trkpt>
<trkpt lat="38.7745900" lon="-7.1700800">
<ele>160.202866</ele>
<time>2007-07-29T08:30:12.997Z</time>
</trkpt>
<trkpt lat="38.7745900" lon="-7.1700800">
<ele>167.883835</ele>
<time>2007-07-29T08:38:01.000Z</time>
</trkpt>
<trkpt lat="38.7745700" lon="-7.1700600">
<ele>165.475922</ele>
<time>2007-07-29T08:39:09.999Z</time>
</trkpt>
<trkpt lat="38.7745700" lon="-7.1701200">
<ele>172.212006</ele>
<time>2007-07-29T08:41:07.002Z</time>
</trkpt>
<trkpt lat="38.7745500" lon="-7.1701200">
<ele>168.859207</ele>
<time>2007-07-29T08:41:24.999Z</time>
</trkpt>
<trkpt lat="38.7745500" lon="-7.1701500">
<ele>169.316406</ele>
<time>2007-07-29T08:41:39.998Z</time>
</trkpt>
<trkpt lat="38.7745500" lon="-7.1701500">
<ele>168.371521</ele>
<time>2007-07-29T08:41:57.002Z</time>
</trkpt>
<trkpt lat="38.7745700" lon="-7.1701500">
<ele>167.883835</ele>
<time>2007-07-29T08:42:09.996Z</time>
</trkpt>
<trkpt lat="38.7745900" lon="-7.1701500">
<ele>164.988235</ele>
<time>2007-07-29T08:42:33.998Z</time>
</trkpt>
<trkpt lat="38.7746800" lon="-7.1701700">
<ele>164.043365</ele>
<time>2007-07-29T08:42:48.004Z</time>
</trkpt>
<trkpt lat="38.7746800" lon="-7.1701700">
<ele>162.610794</ele>
<time>2007-07-29T08:43:11.004Z</time>
</trkpt>
<trkpt lat="38.7747200" lon="-7.1701700">
<ele>164.043365</ele>
<time>2007-07-29T08:43:26.996Z</time>
</trkpt>
<trkpt lat="38.7747400" lon="-7.1701700">
<ele>162.610794</ele>
<time>2007-07-29T08:43:38.004Z</time>
</trkpt>
<trkpt lat="38.7747600" lon="-7.1701900">
<ele>161.635437</ele>
<time>2007-07-29T08:43:50.998Z</time>
</trkpt>
<trkpt lat="38.7747600" lon="-7.1701900">
<ele>160.690567</ele>
<time>2007-07-29T08:44:17.998Z</time>
</trkpt>
<trkpt lat="38.7747600" lon="-7.1701900">
<ele>161.635437</ele>
<time>2007-07-29T08:45:25.001Z</time>
</trkpt>
<trkpt lat="38.7747600" lon="-7.1701900">
<ele>160.690567</ele>
<time>2007-07-29T08:45:54.999Z</time>
</trkpt>
<trkpt lat="38.7748100" lon="-7.1702100">
<ele>159.715195</ele>
<time>2007-07-29T08:46:53.000Z</time>
</trkpt>
<trkpt lat="38.7748300" lon="-7.1702300">
<ele>159.227524</ele>
<time>2007-07-29T08:47:14.004Z</time>
</trkpt>
<trkpt lat="38.7748700" lon="-7.1702700">
<ele>158.282639</ele>
<time>2007-07-29T08:47:34.999Z</time>
</trkpt>
<trkpt lat="38.7748900" lon="-7.1703400">
<ele>159.715195</ele>
<time>2007-07-29T08:47:53.998Z</time>
</trkpt>
<trkpt lat="38.7748900" lon="-7.1703200">
<ele>164.043365</ele>
<time>2007-07-29T08:48:43.004Z</time>
</trkpt>
<trkpt lat="38.7748700" lon="-7.1703200">
<ele>164.531036</ele>
<time>2007-07-29T08:49:40.002Z</time>
</trkpt>
<trkpt lat="38.7748700" lon="-7.1703400">
<ele>159.715195</ele>
<time>2007-07-29T08:50:18.001Z</time>
</trkpt>
<trkpt lat="38.7748500" lon="-7.1703000">
<ele>160.202866</ele>
<time>2007-07-29T08:50:38.996Z</time>
</trkpt>
<trkpt lat="38.7748500" lon="-7.1703400">
<ele>163.067993</ele>
<time>2007-07-29T08:50:54.004Z</time>
</trkpt>
<trkpt lat="38.7748100" lon="-7.1704200">
<ele>160.690567</ele>
<time>2007-07-29T08:51:12.001Z</time>
</trkpt>
<trkpt lat="38.7747900" lon="-7.1704900">
<ele>161.635437</ele>
<time>2007-07-29T08:51:55.996Z</time>
</trkpt>
<trkpt lat="38.7747600" lon="-7.1705500">
<ele>162.123123</ele>
<time>2007-07-29T08:52:14.002Z</time>
</trkpt>
<trkpt lat="38.7747600" lon="-7.1706000">
<ele>162.123123</ele>
<time>2007-07-29T08:52:35.999Z</time>
</trkpt>
<trkpt lat="38.7747900" lon="-7.1706200">
<ele>164.531036</ele>
<time>2007-07-29T08:53:35.002Z</time>
</trkpt>
<trkpt lat="38.7747900" lon="-7.1706200">
<ele>163.067993</ele>
<time>2007-07-29T08:54:15.998Z</time>
</trkpt>
<trkpt lat="38.7747600" lon="-7.1706800">
<ele>162.123123</ele>
<time>2007-07-29T08:54:37.996Z</time>
</trkpt>
<trkpt lat="38.7747600" lon="-7.1707200">
<ele>157.307266</ele>
<time>2007-07-29T08:55:01.004Z</time>
</trkpt>
<trkpt lat="38.7747600" lon="-7.1708300">
<ele>157.307266</ele>
<time>2007-07-29T08:57:58.003Z</time>
</trkpt>
<trkpt lat="38.7747600" lon="-7.1709200">
<ele>158.282639</ele>
<time>2007-07-29T08:58:17.003Z</time>
</trkpt>
<trkpt lat="38.7747600" lon="-7.1709600">
<ele>158.282639</ele>
<time>2007-07-29T08:58:30.999Z</time>
</trkpt>
<trkpt lat="38.7747900" lon="-7.1709800">
<ele>158.739838</ele>
<time>2007-07-29T08:58:44.003Z</time>
</trkpt>
<trkpt lat="38.7747900" lon="-7.1710000">
<ele>155.387039</ele>
<time>2007-07-29T08:59:42.003Z</time>
</trkpt>
<trkpt lat="38.7747900" lon="-7.1710300">
<ele>156.362396</ele>
<time>2007-07-29T08:59:57.002Z</time>
</trkpt>
<trkpt lat="38.7747900" lon="-7.1711100">
<ele>158.739838</ele>
<time>2007-07-29T09:00:32.996Z</time>
</trkpt>
<trkpt lat="38.7747900" lon="-7.1712200">
<ele>158.739838</ele>
<time>2007-07-29T09:00:51.002Z</time>
</trkpt>
<trkpt lat="38.7747600" lon="-7.1712200">
<ele>159.227524</ele>
<time>2007-07-29T09:01:15.997Z</time>
</trkpt>
<trkpt lat="38.7747600" lon="-7.1713000">
<ele>162.123123</ele>
<time>2007-07-29T09:01:57.003Z</time>
</trkpt>
<trkpt lat="38.7746800" lon="-7.1715000">
<ele>159.715195</ele>
<time>2007-07-29T09:02:16.002Z</time>
</trkpt>
<trkpt lat="38.7746800" lon="-7.1715400">
<ele>159.227524</ele>
<time>2007-07-29T09:02:42.000Z</time>
</trkpt>
<trkpt lat="38.7746600" lon="-7.1715800">
<ele>164.043365</ele>
<time>2007-07-29T09:03:10.002Z</time>
</trkpt>
<trkpt lat="38.7745900" lon="-7.1717300">
<ele>161.147766</ele>
<time>2007-07-29T09:03:25.001Z</time>
</trkpt>
<trkpt lat="38.7745500" lon="-7.1718000">
<ele>159.227524</ele>
<time>2007-07-29T09:03:41.003Z</time>
</trkpt>
<trkpt lat="38.7745100" lon="-7.1720300">
<ele>158.282639</ele>
<time>2007-07-29T09:04:01.004Z</time>
</trkpt>
<trkpt lat="38.7744900" lon="-7.1721000">
<ele>158.739838</ele>
<time>2007-07-29T09:04:13.999Z</time>
</trkpt>
<trkpt lat="38.7744900" lon="-7.1721400">
<ele>158.282639</ele>
<time>2007-07-29T09:04:30.000Z</time>
</trkpt>
<trkpt lat="38.7744600" lon="-7.1721600">
<ele>161.147766</ele>
<time>2007-07-29T09:04:51.004Z</time>
</trkpt>
<trkpt lat="38.7744600" lon="-7.1722700">
<ele>159.227524</ele>
<time>2007-07-29T09:05:30.998Z</time>
</trkpt>
<trkpt lat="38.7744400" lon="-7.1725300">
<ele>158.282639</ele>
<time>2007-07-29T09:05:52.002Z</time>
</trkpt>
<trkpt lat="38.7744000" lon="-7.1728100">
<ele>154.899368</ele>
<time>2007-07-29T09:06:16.004Z</time>
</trkpt>
<trkpt lat="38.7744000" lon="-7.1728700">
<ele>158.282639</ele>
<time>2007-07-29T09:06:41.000Z</time>
</trkpt>
<trkpt lat="38.7744200" lon="-7.1728500">
<ele>160.202866</ele>
<time>2007-07-29T09:07:02.004Z</time>
</trkpt>
<trkpt lat="38.7744000" lon="-7.1728500">
<ele>157.794968</ele>
<time>2007-07-29T09:07:44.003Z</time>
</trkpt>
<trkpt lat="38.7743600" lon="-7.1729800">
<ele>156.819595</ele>
<time>2007-07-29T09:08:02.000Z</time>
</trkpt>
<trkpt lat="38.7743400" lon="-7.1731700">
<ele>157.794968</ele>
<time>2007-07-29T09:08:16.999Z</time>
</trkpt>
<trkpt lat="38.7742700" lon="-7.1732400">
<ele>155.874725</ele>
<time>2007-07-29T09:08:39.998Z</time>
</trkpt>
<trkpt lat="38.7741600" lon="-7.1733000">
<ele>152.979111</ele>
<time>2007-07-29T09:10:22.002Z</time>
</trkpt>
<trkpt lat="38.7741600" lon="-7.1734100">
<ele>154.442169</ele>
<time>2007-07-29T09:10:35.999Z</time>
</trkpt>
<trkpt lat="38.7741600" lon="-7.1734300">
<ele>155.874725</ele>
<time>2007-07-29T09:10:50.998Z</time>
</trkpt>
<trkpt lat="38.7741600" lon="-7.1734500">
<ele>159.715195</ele>
<time>2007-07-29T09:11:13.004Z</time>
</trkpt>
<trkpt lat="38.7741600" lon="-7.1734700">
<ele>160.690567</ele>
<time>2007-07-29T09:11:21.998Z</time>
</trkpt>
<trkpt lat="38.7738800" lon="-7.1736400">
<ele>164.531036</ele>
<time>2007-07-29T09:11:35.002Z</time>
</trkpt>
<trkpt lat="38.7736300" lon="-7.1741600">
<ele>164.531036</ele>
<time>2007-07-29T09:11:51.003Z</time>
</trkpt>
<trkpt lat="38.7735200" lon="-7.1745200">
<ele>164.531036</ele>
<time>2007-07-29T09:12:00.999Z</time>
</trkpt>
<trkpt lat="38.7731600" lon="-7.1742900">
<ele>169.316406</ele>
<time>2007-07-29T09:12:13.000Z</time>
</trkpt>
<trkpt lat="38.7729000" lon="-7.1740900">
<ele>171.267120</ele>
<time>2007-07-29T09:12:26.004Z</time>
</trkpt>
<trkpt lat="38.7727000" lon="-7.1739200">
<ele>172.699677</ele>
<time>2007-07-29T09:13:57.000Z</time>
</trkpt>
<trkpt lat="38.7722500" lon="-7.1736200">
<ele>175.107605</ele>
<time>2007-07-29T09:14:10.997Z</time>
</trkpt>
<trkpt lat="38.7719100" lon="-7.1733900">
<ele>176.052475</ele>
<time>2007-07-29T09:14:22.004Z</time>
</trkpt>
<trkpt lat="38.7717000" lon="-7.1732400">
<ele>176.540161</ele>
<time>2007-07-29T09:14:33.996Z</time>
</trkpt>
<trkpt lat="38.7716300" lon="-7.1732100">
<ele>178.460403</ele>
<time>2007-07-29T09:25:43.000Z</time>
</trkpt>
<trkpt lat="38.7716300" lon="-7.1732600">
<ele>178.460403</ele>
<time>2007-07-29T09:25:56.004Z</time>
</trkpt>
<trkpt lat="38.7716300" lon="-7.1732800">
<ele>178.460403</ele>
<time>2007-07-29T09:25:59.002Z</time>
</trkpt>
<trkpt lat="38.7717600" lon="-7.1736400">
<ele>177.972733</ele>
<time>2007-07-29T09:26:15.003Z</time>
</trkpt>
<trkpt lat="38.7719800" lon="-7.1742700">
<ele>173.644562</ele>
<time>2007-07-29T09:26:38.996Z</time>
</trkpt>
<trkpt lat="38.7720200" lon="-7.1743900">
<ele>173.644562</ele>
<time>2007-07-29T09:26:56.000Z</time>
</trkpt>
<trkpt lat="38.7720600" lon="-7.1745700">
<ele>174.132233</ele>
<time>2007-07-29T09:27:16.001Z</time>
</trkpt>
<trkpt lat="38.7721500" lon="-7.1747800">
<ele>174.619934</ele>
<time>2007-07-29T09:27:28.996Z</time>
</trkpt>
<trkpt lat="38.7722500" lon="-7.1750600">
<ele>175.564804</ele>
<time>2007-07-29T09:27:50.000Z</time>
</trkpt>
<trkpt lat="38.7725100" lon="-7.1759200">
<ele>174.619934</ele>
<time>2007-07-29T09:28:14.002Z</time>
</trkpt>
<trkpt lat="38.7724500" lon="-7.1761500">
<ele>174.132233</ele>
<time>2007-07-29T09:28:26.003Z</time>
</trkpt>
<trkpt lat="38.7723000" lon="-7.1764500">
<ele>173.187363</ele>
<time>2007-07-29T09:30:06.002Z</time>
</trkpt>
<trkpt lat="38.7720600" lon="-7.1769900">
<ele>172.699677</ele>
<time>2007-07-29T09:30:19.999Z</time>
</trkpt>
<trkpt lat="38.7718500" lon="-7.1774200">
<ele>169.804077</ele>
<time>2007-07-29T09:30:33.002Z</time>
</trkpt>
<trkpt lat="38.7718500" lon="-7.1774400">
<ele>169.804077</ele>
<time>2007-07-29T09:30:53.997Z</time>
</trkpt>
<trkpt lat="38.7718500" lon="-7.1774400">
<ele>170.779434</ele>
<time>2007-07-29T09:31:36.998Z</time>
</trkpt>
<trkpt lat="38.7718000" lon="-7.1775300">
<ele>170.779434</ele>
<time>2007-07-29T09:32:37.997Z</time>
</trkpt>
<trkpt lat="38.7717800" lon="-7.1775900">
<ele>169.804077</ele>
<time>2007-07-29T09:33:08.997Z</time>
</trkpt>
<trkpt lat="38.7716700" lon="-7.1778300">
<ele>169.804077</ele>
<time>2007-07-29T09:33:31.997Z</time>
</trkpt>
<trkpt lat="38.7716700" lon="-7.1779100">
<ele>169.804077</ele>
<time>2007-07-29T09:33:43.004Z</time>
</trkpt>
<trkpt lat="38.7717800" lon="-7.1781500">
<ele>168.859207</ele>
<time>2007-07-29T09:38:19.000Z</time>
</trkpt>
<trkpt lat="38.7719100" lon="-7.1785800">
<ele>164.988235</ele>
<time>2007-07-29T09:38:32.004Z</time>
</trkpt>
<trkpt lat="38.7719500" lon="-7.1788600">
<ele>164.043365</ele>
<time>2007-07-29T09:38:43.996Z</time>
</trkpt>
<trkpt lat="38.7719800" lon="-7.1789200">
<ele>164.043365</ele>
<time>2007-07-29T09:39:03.997Z</time>
</trkpt>
<trkpt lat="38.7719500" lon="-7.1789400">
<ele>165.475922</ele>
<time>2007-07-29T09:47:42.000Z</time>
</trkpt>
<trkpt lat="38.7719500" lon="-7.1789200">
<ele>166.451279</ele>
<time>2007-07-29T09:48:10.996Z</time>
</trkpt>
<trkpt lat="38.7719500" lon="-7.1789200">
<ele>167.883835</ele>
<time>2007-07-29T09:48:44.001Z</time>
</trkpt>
<trkpt lat="38.7719800" lon="-7.1789400">
<ele>166.938965</ele>
<time>2007-07-29T09:48:59.000Z</time>
</trkpt>
<trkpt lat="38.7720000" lon="-7.1789600">
<ele>165.963593</ele>
<time>2007-07-29T09:49:20.997Z</time>
</trkpt>
<trkpt lat="38.7720000" lon="-7.1790300">
<ele>164.531036</ele>
<time>2007-07-29T09:49:28.004Z</time>
</trkpt>
<trkpt lat="38.7720000" lon="-7.1792900">
<ele>161.147766</ele>
<time>2007-07-29T09:49:50.002Z</time>
</trkpt>
<trkpt lat="38.7719300" lon="-7.1794200">
<ele>159.227524</ele>
<time>2007-07-29T09:50:06.003Z</time>
</trkpt>
<trkpt lat="38.7718900" lon="-7.1795200">
<ele>158.739838</ele>
<time>2007-07-29T09:50:22.004Z</time>
</trkpt>
<trkpt lat="38.7718000" lon="-7.1797400">
<ele>159.227524</ele>
<time>2007-07-29T09:50:42.999Z</time>
</trkpt>
<trkpt lat="38.7717800" lon="-7.1797800">
<ele>159.227524</ele>
<time>2007-07-29T09:50:47.000Z</time>
</trkpt>
<trkpt lat="38.7717200" lon="-7.1799300">
<ele>159.227524</ele>
<time>2007-07-29T09:51:03.001Z</time>
</trkpt>
<trkpt lat="38.7717000" lon="-7.1799700">
<ele>158.282639</ele>
<time>2007-07-29T09:51:20.998Z</time>
</trkpt>
<trkpt lat="38.7717000" lon="-7.1799700">
<ele>159.227524</ele>
<time>2007-07-29T09:51:50.003Z</time>
</trkpt>
<trkpt lat="38.7717000" lon="-7.1799700">
<ele>159.715195</ele>
<time>2007-07-29T09:52:14.998Z</time>
</trkpt>
<trkpt lat="38.7716700" lon="-7.1800200">
<ele>161.635437</ele>
<time>2007-07-29T09:52:40.002Z</time>
</trkpt>
<trkpt lat="38.7717000" lon="-7.1799700">
<ele>160.690567</ele>
<time>2007-07-29T09:53:15.996Z</time>
</trkpt>
<trkpt lat="38.7716700" lon="-7.1800400">
<ele>162.123123</ele>
<time>2007-07-29T09:53:31.004Z</time>
</trkpt>
<trkpt lat="38.7716700" lon="-7.1800200">
<ele>159.227524</ele>
<time>2007-07-29T09:53:47.999Z</time>
</trkpt>
<trkpt lat="38.7716300" lon="-7.1801200">
<ele>158.739838</ele>
<time>2007-07-29T09:54:16.001Z</time>
</trkpt>
<trkpt lat="38.7716100" lon="-7.1801700">
<ele>159.227524</ele>
<time>2007-07-29T09:54:20.002Z</time>
</trkpt>
<trkpt lat="38.7715700" lon="-7.1802700">
<ele>158.739838</ele>
<time>2007-07-29T09:54:41.999Z</time>
</trkpt>
<trkpt lat="38.7715700" lon="-7.1802900">
<ele>159.227524</ele>
<time>2007-07-29T09:54:58.000Z</time>
</trkpt>
<trkpt lat="38.7715500" lon="-7.1802900">
<ele>158.739838</ele>
<time>2007-07-29T09:55:11.004Z</time>
</trkpt>
<trkpt lat="38.7715500" lon="-7.1802900">
<ele>158.282639</ele>
<time>2007-07-29T09:55:26.996Z</time>
</trkpt>
<trkpt lat="38.7715500" lon="-7.1802900">
<ele>160.202866</ele>
<time>2007-07-29T09:56:01.003Z</time>
</trkpt>
<trkpt lat="38.7714400" lon="-7.1805700">
<ele>158.739838</ele>
<time>2007-07-29T09:56:23.001Z</time>
</trkpt>
<trkpt lat="38.7711600" lon="-7.1810700">
<ele>160.690567</ele>
<time>2007-07-29T09:56:38.000Z</time>
</trkpt>
<trkpt lat="38.7710700" lon="-7.1812800">
<ele>161.635437</ele>
<time>2007-07-29T09:56:47.996Z</time>
</trkpt>
<trkpt lat="38.7710500" lon="-7.1813200">
<ele>161.147766</ele>
<time>2007-07-29T09:57:02.002Z</time>
</trkpt>
<trkpt lat="38.7709900" lon="-7.1813700">
<ele>163.555679</ele>
<time>2007-07-29T09:58:34.000Z</time>
</trkpt>
<trkpt lat="38.7709200" lon="-7.1814500">
<ele>163.555679</ele>
<time>2007-07-29T09:58:39.003Z</time>
</trkpt>
<trkpt lat="38.7707100" lon="-7.1819900">
<ele>163.067993</ele>
<time>2007-07-29T09:58:51.004Z</time>
</trkpt>
<trkpt lat="38.7704700" lon="-7.1824600">
<ele>161.635437</ele>
<time>2007-07-29T09:59:05.001Z</time>
</trkpt>
<trkpt lat="38.7704700" lon="-7.1824200">
<ele>164.043365</ele>
<time>2007-07-29T09:59:49.004Z</time>
</trkpt>
<trkpt lat="38.7703900" lon="-7.1827000">
<ele>163.067993</ele>
<time>2007-07-29T10:00:14.000Z</time>
</trkpt>
<trkpt lat="38.7701100" lon="-7.1834100">
<ele>162.610794</ele>
<time>2007-07-29T10:00:27.996Z</time>
</trkpt>
<trkpt lat="38.7698100" lon="-7.1841400">
<ele>162.610794</ele>
<time>2007-07-29T10:00:43.998Z</time>
</trkpt>
<trkpt lat="38.7693800" lon="-7.1849700">
<ele>161.635437</ele>
<time>2007-07-29T10:01:05.002Z</time>
</trkpt>
<trkpt lat="38.7693600" lon="-7.1850200">
<ele>163.555679</ele>
<time>2007-07-29T10:01:17.996Z</time>
</trkpt>
<trkpt lat="38.7693100" lon="-7.1852900">
<ele>162.610794</ele>
<time>2007-07-29T10:02:37.000Z</time>
</trkpt>
<trkpt lat="38.7690600" lon="-7.1863000">
<ele>160.690567</ele>
<time>2007-07-29T10:02:53.002Z</time>
</trkpt>
<trkpt lat="38.7690400" lon="-7.1863700">
<ele>160.690567</ele>
<time>2007-07-29T10:02:54.004Z</time>
</trkpt>
<trkpt lat="38.7688600" lon="-7.1870100">
<ele>158.739838</ele>
<time>2007-07-29T10:03:09.003Z</time>
</trkpt>
<trkpt lat="38.7686900" lon="-7.1872700">
<ele>158.739838</ele>
<time>2007-07-29T10:03:21.997Z</time>
</trkpt>
<trkpt lat="38.7686300" lon="-7.1874000">
<ele>157.794968</ele>
<time>2007-07-29T10:03:35.001Z</time>
</trkpt>
<trkpt lat="38.7686100" lon="-7.1874400">
<ele>158.282639</ele>
<time>2007-07-29T10:03:59.003Z</time>
</trkpt>
<trkpt lat="38.7684800" lon="-7.1876500">
<ele>157.794968</ele>
<time>2007-07-29T10:04:21.000Z</time>
</trkpt>
<trkpt lat="38.7682000" lon="-7.1880200">
<ele>158.282639</ele>
<time>2007-07-29T10:04:33.001Z</time>
</trkpt>
<trkpt lat="38.7680100" lon="-7.1883800">
<ele>154.899368</ele>
<time>2007-07-29T10:04:44.000Z</time>
</trkpt>
<trkpt lat="38.7675800" lon="-7.1889600">
<ele>155.387039</ele>
<time>2007-07-29T10:04:58.999Z</time>
</trkpt>
<trkpt lat="38.7673200" lon="-7.1893500">
<ele>156.362396</ele>
<time>2007-07-29T10:05:16.002Z</time>
</trkpt>
<trkpt lat="38.7670800" lon="-7.1896700">
<ele>156.819595</ele>
<time>2007-07-29T10:05:28.997Z</time>
</trkpt>
<trkpt lat="38.7668000" lon="-7.1899900">
<ele>156.819595</ele>
<time>2007-07-29T10:05:46.000Z</time>
</trkpt>
<trkpt lat="38.7667800" lon="-7.1900200">
<ele>159.715195</ele>
<time>2007-07-29T10:06:40.000Z</time>
</trkpt>
<trkpt lat="38.7665900" lon="-7.1901900">
<ele>159.227524</ele>
<time>2007-07-29T10:06:49.997Z</time>
</trkpt>
<trkpt lat="38.7665000" lon="-7.1902700">
<ele>158.739838</ele>
<time>2007-07-29T10:07:04.996Z</time>
</trkpt>
<trkpt lat="38.7662000" lon="-7.1906600">
<ele>157.794968</ele>
<time>2007-07-29T10:07:16.997Z</time>
</trkpt>
<trkpt lat="38.7656000" lon="-7.1913700">
<ele>155.874725</ele>
<time>2007-07-29T10:07:34.000Z</time>
</trkpt>
<trkpt lat="38.7654700" lon="-7.1915400">
<ele>154.442169</ele>
<time>2007-07-29T10:07:44.999Z</time>
</trkpt>
<trkpt lat="38.7654100" lon="-7.1916500">
<ele>155.387039</ele>
<time>2007-07-29T10:08:52.996Z</time>
</trkpt>
<trkpt lat="38.7651500" lon="-7.1920100">
<ele>152.034241</ele>
<time>2007-07-29T10:09:12.997Z</time>
</trkpt>
<trkpt lat="38.7651100" lon="-7.1920300">
<ele>151.546570</ele>
<time>2007-07-29T10:09:31.003Z</time>
</trkpt>
<trkpt lat="38.7651100" lon="-7.1920300">
<ele>149.626312</ele>
<time>2007-07-29T10:10:21.003Z</time>
</trkpt>
<trkpt lat="38.7650900" lon="-7.1920100">
<ele>151.546570</ele>
<time>2007-07-29T10:11:29.000Z</time>
</trkpt>
<trkpt lat="38.7651100" lon="-7.1920500">
<ele>155.387039</ele>
<time>2007-07-29T10:14:04.001Z</time>
</trkpt>
<trkpt lat="38.7651100" lon="-7.1920300">
<ele>156.362396</ele>
<time>2007-07-29T10:15:14.003Z</time>
</trkpt>
<trkpt lat="38.7651100" lon="-7.1920300">
<ele>155.874725</ele>
<time>2007-07-29T10:16:05.998Z</time>
</trkpt>
<trkpt lat="38.7651500" lon="-7.1920300">
<ele>159.227524</ele>
<time>2007-07-29T10:16:46.001Z</time>
</trkpt>
<trkpt lat="38.7651700" lon="-7.1920300">
<ele>159.715195</ele>
<time>2007-07-29T10:17:42.999Z</time>
</trkpt>
<trkpt lat="38.7651700" lon="-7.1920300">
<ele>157.307266</ele>
<time>2007-07-29T10:18:43.004Z</time>
</trkpt>
<trkpt lat="38.7651500" lon="-7.1919900">
<ele>157.307266</ele>
<time>2007-07-29T10:19:08.000Z</time>
</trkpt>
<trkpt lat="38.7650900" lon="-7.1919900">
<ele>158.282639</ele>
<time>2007-07-29T10:19:25.003Z</time>
</trkpt>
<trkpt lat="38.7650900" lon="-7.1920100">
<ele>159.715195</ele>
<time>2007-07-29T10:19:51.001Z</time>
</trkpt>
<trkpt lat="38.7650700" lon="-7.1919900">
<ele>160.690567</ele>
<time>2007-07-29T10:20:46.003Z</time>
</trkpt>
<trkpt lat="38.7650200" lon="-7.1919500">
<ele>162.123123</ele>
<time>2007-07-29T10:21:05.003Z</time>
</trkpt>
<trkpt lat="38.7650000" lon="-7.1919500">
<ele>164.531036</ele>
<time>2007-07-29T10:21:28.002Z</time>
</trkpt>
<trkpt lat="38.7649800" lon="-7.1919700">
<ele>163.555679</ele>
<time>2007-07-29T10:21:56.998Z</time>
</trkpt>
<trkpt lat="38.7649800" lon="-7.1919700">
<ele>164.043365</ele>
<time>2007-07-29T10:22:41.002Z</time>
</trkpt>
<trkpt lat="38.7650000" lon="-7.1919700">
<ele>164.531036</ele>
<time>2007-07-29T10:23:04.001Z</time>
</trkpt>
<trkpt lat="38.7650000" lon="-7.1919700">
<ele>165.475922</ele>
<time>2007-07-29T10:23:25.999Z</time>
</trkpt>
<trkpt lat="38.7649800" lon="-7.1919700">
<ele>164.531036</ele>
<time>2007-07-29T10:23:44.998Z</time>
</trkpt>
<trkpt lat="38.7649800" lon="-7.1919700">
<ele>164.531036</ele>
<time>2007-07-29T10:24:14.996Z</time>
</trkpt>
<trkpt lat="38.7649600" lon="-7.1919500">
<ele>163.555679</ele>
<time>2007-07-29T10:24:26.997Z</time>
</trkpt>
<trkpt lat="38.7649600" lon="-7.1919500">
<ele>163.555679</ele>
<time>2007-07-29T10:24:46.999Z</time>
</trkpt>
<trkpt lat="38.7648900" lon="-7.1919900">
<ele>163.067993</ele>
<time>2007-07-29T10:25:28.004Z</time>
</trkpt>
<trkpt lat="38.7648500" lon="-7.1920100">
<ele>162.610794</ele>
<time>2007-07-29T10:25:40.999Z</time>
</trkpt>
<trkpt lat="38.7648700" lon="-7.1919900">
<ele>162.610794</ele>
<time>2007-07-29T10:25:57.000Z</time>
</trkpt>
<trkpt lat="38.7648300" lon="-7.1920100">
<ele>162.123123</ele>
<time>2007-07-29T10:26:49.998Z</time>
</trkpt>
<trkpt lat="38.7647700" lon="-7.1920300">
<ele>162.123123</ele>
<time>2007-07-29T10:26:56.003Z</time>
</trkpt>
<trkpt lat="38.7646200" lon="-7.1922000">
<ele>162.123123</ele>
<time>2007-07-29T10:27:15.002Z</time>
</trkpt>
<trkpt lat="38.7645500" lon="-7.1922900">
<ele>161.147766</ele>
<time>2007-07-29T10:27:28.999Z</time>
</trkpt>
<trkpt lat="38.7645100" lon="-7.1923300">
<ele>159.715195</ele>
<time>2007-07-29T10:27:43.998Z</time>
</trkpt>
<trkpt lat="38.7644000" lon="-7.1924400">
<ele>159.715195</ele>
<time>2007-07-29T10:27:58.997Z</time>
</trkpt>
<trkpt lat="38.7642900" lon="-7.1925300">
<ele>160.690567</ele>
<time>2007-07-29T10:28:17.003Z</time>
</trkpt>
<trkpt lat="38.7641900" lon="-7.1925900">
<ele>160.202866</ele>
<time>2007-07-29T10:28:37.004Z</time>
</trkpt>
<trkpt lat="38.7641400" lon="-7.1926500">
<ele>160.202866</ele>
<time>2007-07-29T10:28:49.999Z</time>
</trkpt>
<trkpt lat="38.7641200" lon="-7.1926800">
<ele>160.690567</ele>
<time>2007-07-29T10:29:15.003Z</time>
</trkpt>
<trkpt lat="38.7641200" lon="-7.1926800">
<ele>161.147766</ele>
<time>2007-07-29T10:29:35.998Z</time>
</trkpt>
<trkpt lat="38.7641200" lon="-7.1927000">
<ele>161.147766</ele>
<time>2007-07-29T10:30:00.000Z</time>
</trkpt>
<trkpt lat="38.7641200" lon="-7.1926300">
<ele>163.555679</ele>
<time>2007-07-29T10:31:26.003Z</time>
</trkpt>
<trkpt lat="38.7641200" lon="-7.1926800">
<ele>162.610794</ele>
<time>2007-07-29T10:31:44.000Z</time>
</trkpt>
<trkpt lat="38.7641200" lon="-7.1927000">
<ele>160.202866</ele>
<time>2007-07-29T10:32:05.004Z</time>
</trkpt>
<trkpt lat="38.7641200" lon="-7.1927000">
<ele>161.147766</ele>
<time>2007-07-29T10:32:24.996Z</time>
</trkpt>
<trkpt lat="38.7641400" lon="-7.1927000">
<ele>159.715195</ele>
<time>2007-07-29T10:32:54.001Z</time>
</trkpt>
<trkpt lat="38.7641200" lon="-7.1926800">
<ele>159.715195</ele>
<time>2007-07-29T10:33:26.997Z</time>
</trkpt>
<trkpt lat="38.7641400" lon="-7.1927000">
<ele>158.739838</ele>
<time>2007-07-29T10:33:50.999Z</time>
</trkpt>
<trkpt lat="38.7640800" lon="-7.1927400">
<ele>159.227524</ele>
<time>2007-07-29T10:34:09.998Z</time>
</trkpt>
<trkpt lat="38.7639700" lon="-7.1927800">
<ele>160.690567</ele>
<time>2007-07-29T10:34:26.000Z</time>
</trkpt>
<trkpt lat="38.7639500" lon="-7.1927600">
<ele>164.988235</ele>
<time>2007-07-29T10:35:32.001Z</time>
</trkpt>
<trkpt lat="38.7639300" lon="-7.1927800">
<ele>164.988235</ele>
<time>2007-07-29T10:35:49.004Z</time>
</trkpt>
<trkpt lat="38.7638200" lon="-7.1928500">
<ele>163.555679</ele>
<time>2007-07-29T10:36:23.003Z</time>
</trkpt>
<trkpt lat="38.7636300" lon="-7.1929600">
<ele>161.635437</ele>
<time>2007-07-29T10:36:43.998Z</time>
</trkpt>
<trkpt lat="38.7636700" lon="-7.1929300">
<ele>161.635437</ele>
<time>2007-07-29T10:37:02.004Z</time>
</trkpt>
<trkpt lat="38.7636500" lon="-7.1929300">
<ele>163.067993</ele>
<time>2007-07-29T10:37:21.003Z</time>
</trkpt>
<trkpt lat="38.7636300" lon="-7.1929600">
<ele>163.555679</ele>
<time>2007-07-29T10:38:00.004Z</time>
</trkpt>
<trkpt lat="38.7634300" lon="-7.1929300">
<ele>163.067993</ele>
<time>2007-07-29T10:38:19.003Z</time>
</trkpt>
<trkpt lat="38.7633500" lon="-7.1929600">
<ele>162.610794</ele>
<time>2007-07-29T10:38:31.998Z</time>
</trkpt>
<trkpt lat="38.7633100" lon="-7.1929600">
<ele>163.067993</ele>
<time>2007-07-29T10:38:53.002Z</time>
</trkpt>
<trkpt lat="38.7631600" lon="-7.1929600">
<ele>163.067993</ele>
<time>2007-07-29T10:39:04.000Z</time>
</trkpt>
<trkpt lat="38.7631100" lon="-7.1929600">
<ele>162.610794</ele>
<time>2007-07-29T10:39:13.997Z</time>
</trkpt>
<trkpt lat="38.7630300" lon="-7.1929600">
<ele>163.067993</ele>
<time>2007-07-29T10:39:31.000Z</time>
</trkpt>
<trkpt lat="38.7630100" lon="-7.1929600">
<ele>162.123123</ele>
<time>2007-07-29T10:39:52.004Z</time>
</trkpt>
<trkpt lat="38.7630300" lon="-7.1929600">
<ele>160.202866</ele>
<time>2007-07-29T10:40:18.002Z</time>
</trkpt>
<trkpt lat="38.7629800" lon="-7.1929600">
<ele>161.147766</ele>
<time>2007-07-29T10:40:30.996Z</time>
</trkpt>
<trkpt lat="38.7629800" lon="-7.1929300">
<ele>162.610794</ele>
<time>2007-07-29T10:41:16.996Z</time>
</trkpt>
<trkpt lat="38.7629800" lon="-7.1929300">
<ele>159.715195</ele>
<time>2007-07-29T10:41:50.001Z</time>
</trkpt>
<trkpt lat="38.7629800" lon="-7.1929300">
<ele>161.635437</ele>
<time>2007-07-29T10:42:49.003Z</time>
</trkpt>
<trkpt lat="38.7629000" lon="-7.1929800">
<ele>160.690567</ele>
<time>2007-07-29T10:43:03.000Z</time>
</trkpt>
<trkpt lat="38.7628100" lon="-7.1930600">
<ele>161.635437</ele>
<time>2007-07-29T10:43:20.997Z</time>
</trkpt>
<trkpt lat="38.7627300" lon="-7.1930800">
<ele>158.282639</ele>
<time>2007-07-29T10:43:46.001Z</time>
</trkpt>
<trkpt lat="38.7627300" lon="-7.1930600">
<ele>162.610794</ele>
<time>2007-07-29T10:44:25.996Z</time>
</trkpt>
<trkpt lat="38.7627500" lon="-7.1930600">
<ele>164.531036</ele>
<time>2007-07-29T10:44:51.000Z</time>
</trkpt>
<trkpt lat="38.7627100" lon="-7.1930600">
<ele>161.147766</ele>
<time>2007-07-29T10:45:50.996Z</time>
</trkpt>
<trkpt lat="38.7627100" lon="-7.1930800">
<ele>160.690567</ele>
<time>2007-07-29T10:45:51.998Z</time>
</trkpt>
<trkpt lat="38.7626000" lon="-7.1932100">
<ele>160.690567</ele>
<time>2007-07-29T10:46:05.002Z</time>
</trkpt>
<trkpt lat="38.7625800" lon="-7.1932800">
<ele>160.202866</ele>
<time>2007-07-29T10:46:13.996Z</time>
</trkpt>
<trkpt lat="38.7624700" lon="-7.1933400">
<ele>159.715195</ele>
<time>2007-07-29T10:46:24.001Z</time>
</trkpt>
<trkpt lat="38.7623800" lon="-7.1934700">
<ele>159.715195</ele>
<time>2007-07-29T10:46:41.998Z</time>
</trkpt>
<trkpt lat="38.7623600" lon="-7.1934500">
<ele>161.147766</ele>
<time>2007-07-29T10:47:15.003Z</time>
</trkpt>
<trkpt lat="38.7622800" lon="-7.1934900">
<ele>160.690567</ele>
<time>2007-07-29T10:47:23.004Z</time>
</trkpt>
<trkpt lat="38.7620600" lon="-7.1936000">
<ele>160.202866</ele>
<time>2007-07-29T10:47:43.999Z</time>
</trkpt>
<trkpt lat="38.7619300" lon="-7.1936600">
<ele>160.202866</ele>
<time>2007-07-29T10:48:02.998Z</time>
</trkpt>
<trkpt lat="38.7618900" lon="-7.1936200">
<ele>162.610794</ele>
<time>2007-07-29T10:48:50.000Z</time>
</trkpt>
<trkpt lat="38.7618700" lon="-7.1936400">
<ele>156.819595</ele>
<time>2007-07-29T10:49:38.004Z</time>
</trkpt>
<trkpt lat="38.7618000" lon="-7.1936600">
<ele>158.282639</ele>
<time>2007-07-29T10:49:54.998Z</time>
</trkpt>
<trkpt lat="38.7617800" lon="-7.1936800">
<ele>161.147766</ele>
<time>2007-07-29T10:50:54.001Z</time>
</trkpt>
<trkpt lat="38.7617800" lon="-7.1936800">
<ele>161.147766</ele>
<time>2007-07-29T10:51:56.002Z</time>
</trkpt>
<trkpt lat="38.7616800" lon="-7.1936800">
<ele>160.202866</ele>
<time>2007-07-29T10:52:28.998Z</time>
</trkpt>
<trkpt lat="38.7615500" lon="-7.1937100">
<ele>160.202866</ele>
<time>2007-07-29T10:52:47.997Z</time>
</trkpt>
<trkpt lat="38.7615700" lon="-7.1937300">
<ele>158.739838</ele>
<time>2007-07-29T10:53:18.004Z</time>
</trkpt>
<trkpt lat="38.7615700" lon="-7.1937300">
<ele>161.635437</ele>
<time>2007-07-29T10:53:47.000Z</time>
</trkpt>
<trkpt lat="38.7614400" lon="-7.1937300">
<ele>160.202866</ele>
<time>2007-07-29T10:54:04.997Z</time>
</trkpt>
<trkpt lat="38.7612700" lon="-7.1937900">
<ele>158.739838</ele>
<time>2007-07-29T10:54:27.996Z</time>
</trkpt>
<trkpt lat="38.7610700" lon="-7.1938100">
<ele>159.227524</ele>
<time>2007-07-29T10:54:46.996Z</time>
</trkpt>
<trkpt lat="38.7608000" lon="-7.1938800">
<ele>158.739838</ele>
<time>2007-07-29T10:55:10.004Z</time>
</trkpt>
<trkpt lat="38.7607700" lon="-7.1939000">
<ele>158.739838</ele>
<time>2007-07-29T10:55:25.997Z</time>
</trkpt>
<trkpt lat="38.7608000" lon="-7.1939000">
<ele>161.147766</ele>
<time>2007-07-29T10:55:52.003Z</time>
</trkpt>
<trkpt lat="38.7608000" lon="-7.1938800">
<ele>160.202866</ele>
<time>2007-07-29T10:56:11.996Z</time>
</trkpt>
<trkpt lat="38.7608000" lon="-7.1938800">
<ele>160.202866</ele>
<time>2007-07-29T10:56:23.004Z</time>
</trkpt>
<trkpt lat="38.7607300" lon="-7.1939400">
<ele>158.739838</ele>
<time>2007-07-29T10:56:41.001Z</time>
</trkpt>
<trkpt lat="38.7606900" lon="-7.1940100">
<ele>153.954483</ele>
<time>2007-07-29T10:57:01.002Z</time>
</trkpt>
<trkpt lat="38.7606900" lon="-7.1939800">
<ele>154.899368</ele>
<time>2007-07-29T10:57:27.000Z</time>
</trkpt>
<trkpt lat="38.7606000" lon="-7.1940700">
<ele>155.874725</ele>
<time>2007-07-29T10:57:48.997Z</time>
</trkpt>
<trkpt lat="38.7606000" lon="-7.1941100">
<ele>157.794968</ele>
<time>2007-07-29T10:58:07.997Z</time>
</trkpt>
<trkpt lat="38.7606000" lon="-7.1940900">
<ele>157.307266</ele>
<time>2007-07-29T10:58:45.002Z</time>
</trkpt>
<trkpt lat="38.7605600" lon="-7.1941400">
<ele>158.739838</ele>
<time>2007-07-29T10:59:01.997Z</time>
</trkpt>
<trkpt lat="38.7605200" lon="-7.1942000">
<ele>159.715195</ele>
<time>2007-07-29T10:59:16.996Z</time>
</trkpt>
<trkpt lat="38.7604700" lon="-7.1942000">
<ele>164.531036</ele>
<time>2007-07-29T10:59:54.001Z</time>
</trkpt>
<trkpt lat="38.7603400" lon="-7.1943500">
<ele>163.067993</ele>
<time>2007-07-29T11:00:11.998Z</time>
</trkpt>
<trkpt lat="38.7603400" lon="-7.1943500">
<ele>158.739838</ele>
<time>2007-07-29T11:00:41.003Z</time>
</trkpt>
<trkpt lat="38.7603200" lon="-7.1943500">
<ele>157.307266</ele>
<time>2007-07-29T11:00:53.004Z</time>
</trkpt>
<trkpt lat="38.7601100" lon="-7.1945400">
<ele>157.307266</ele>
<time>2007-07-29T11:01:15.001Z</time>
</trkpt>
<trkpt lat="38.7600900" lon="-7.1945900">
<ele>157.794968</ele>
<time>2007-07-29T11:01:19.001Z</time>
</trkpt>
<trkpt lat="38.7600700" lon="-7.1946100">
<ele>158.739838</ele>
<time>2007-07-29T11:01:23.002Z</time>
</trkpt>
<trkpt lat="38.7600000" lon="-7.1947100">
<ele>158.739838</ele>
<time>2007-07-29T11:01:31.996Z</time>
</trkpt>
<trkpt lat="38.7598100" lon="-7.1949500">
<ele>159.715195</ele>
<time>2007-07-29T11:01:54.002Z</time>
</trkpt>
<trkpt lat="38.7597000" lon="-7.1950100">
<ele>163.555679</ele>
<time>2007-07-29T11:02:10.997Z</time>
</trkpt>
<trkpt lat="38.7596200" lon="-7.1950400">
<ele>165.475922</ele>
<time>2007-07-29T11:02:26.998Z</time>
</trkpt>
<trkpt lat="38.7596200" lon="-7.1950400">
<ele>167.396164</ele>
<time>2007-07-29T11:02:52.002Z</time>
</trkpt>
<trkpt lat="38.7596400" lon="-7.1950100">
<ele>167.396164</ele>
<time>2007-07-29T11:03:27.996Z</time>
</trkpt>
<trkpt lat="38.7596400" lon="-7.1950600">
<ele>167.883835</ele>
<time>2007-07-29T11:03:50.003Z</time>
</trkpt>
<trkpt lat="38.7596200" lon="-7.1950400">
<ele>165.475922</ele>
<time>2007-07-29T11:04:35.000Z</time>
</trkpt>
<trkpt lat="38.7595300" lon="-7.1950100">
<ele>167.396164</ele>
<time>2007-07-29T11:08:25.999Z</time>
</trkpt>
<trkpt lat="38.7594700" lon="-7.1950100">
<ele>166.451279</ele>
<time>2007-07-29T11:08:44.998Z</time>
</trkpt>
<trkpt lat="38.7594000" lon="-7.1950400">
<ele>165.475922</ele>
<time>2007-07-29T11:09:02.002Z</time>
</trkpt>
<trkpt lat="38.7592500" lon="-7.1950800">
<ele>161.147766</ele>
<time>2007-07-29T11:09:19.999Z</time>
</trkpt>
<trkpt lat="38.7590400" lon="-7.1951200">
<ele>159.227524</ele>
<time>2007-07-29T11:09:41.003Z</time>
</trkpt>
<trkpt lat="38.7588600" lon="-7.1950800">
<ele>164.531036</ele>
<time>2007-07-29T11:10:01.998Z</time>
</trkpt>
<trkpt lat="38.7587100" lon="-7.1949700">
<ele>165.475922</ele>
<time>2007-07-29T11:10:21.999Z</time>
</trkpt>
<trkpt lat="38.7587100" lon="-7.1949500">
<ele>165.475922</ele>
<time>2007-07-29T11:10:40.999Z</time>
</trkpt>
<trkpt lat="38.7587100" lon="-7.1949900">
<ele>164.043365</ele>
<time>2007-07-29T11:11:07.999Z</time>
</trkpt>
<trkpt lat="38.7587100" lon="-7.1949700">
<ele>165.963593</ele>
<time>2007-07-29T11:11:36.001Z</time>
</trkpt>
<trkpt lat="38.7586900" lon="-7.1949700">
<ele>167.883835</ele>
<time>2007-07-29T11:12:03.001Z</time>
</trkpt>
<trkpt lat="38.7586500" lon="-7.1950100">
<ele>167.883835</ele>
<time>2007-07-29T11:12:46.996Z</time>
</trkpt>
<trkpt lat="38.7586100" lon="-7.1950100">
<ele>165.963593</ele>
<time>2007-07-29T11:12:53.001Z</time>
</trkpt>
<trkpt lat="38.7585600" lon="-7.1950100">
<ele>165.475922</ele>
<time>2007-07-29T11:12:55.999Z</time>
</trkpt>
<trkpt lat="38.7585000" lon="-7.1949900">
<ele>164.531036</ele>
<time>2007-07-29T11:13:01.001Z</time>
</trkpt>
<trkpt lat="38.7584800" lon="-7.1949900">
<ele>162.123123</ele>
<time>2007-07-29T11:13:17.003Z</time>
</trkpt>
<trkpt lat="38.7584600" lon="-7.1950100">
<ele>163.555679</ele>
<time>2007-07-29T11:17:04.001Z</time>
</trkpt>
<trkpt lat="38.7584600" lon="-7.1950100">
<ele>163.555679</ele>
<time>2007-07-29T11:17:20.003Z</time>
</trkpt>
<trkpt lat="38.7584800" lon="-7.1949900">
<ele>159.715195</ele>
<time>2007-07-29T11:18:07.004Z</time>
</trkpt>
<trkpt lat="38.7584100" lon="-7.1950100">
<ele>160.690567</ele>
<time>2007-07-29T11:19:23.002Z</time>
</trkpt>
<trkpt lat="38.7583100" lon="-7.1949700">
<ele>160.690567</ele>
<time>2007-07-29T11:19:35.996Z</time>
</trkpt>
<trkpt lat="38.7582600" lon="-7.1949100">
<ele>160.690567</ele>
<time>2007-07-29T11:19:47.004Z</time>
</trkpt>
<trkpt lat="38.7581600" lon="-7.1949300">
<ele>161.635437</ele>
<time>2007-07-29T11:20:03.998Z</time>
</trkpt>
<trkpt lat="38.7581100" lon="-7.1950400">
<ele>159.715195</ele>
<time>2007-07-29T11:20:20.000Z</time>
</trkpt>
<trkpt lat="38.7580900" lon="-7.1950600">
<ele>159.715195</ele>
<time>2007-07-29T11:21:16.998Z</time>
</trkpt>
<trkpt lat="38.7580500" lon="-7.1951700">
<ele>156.819595</ele>
<time>2007-07-29T11:22:37.004Z</time>
</trkpt>
</trkseg>
<trkseg>
<trkpt lat="38.7583100" lon="-7.1951700">
<ele>119.816879</ele>
<time>2007-07-29T16:03:48.997Z</time>
</trkpt>
<trkpt lat="38.7582200" lon="-7.1951200">
<ele>149.138641</ele>
<time>2007-07-29T16:04:33.001Z</time>
</trkpt>
<trkpt lat="38.7582200" lon="-7.1950600">
<ele>152.034241</ele>
<time>2007-07-29T16:06:19.999Z</time>
</trkpt>
<trkpt lat="38.7581800" lon="-7.1950800">
<ele>153.954483</ele>
<time>2007-07-29T16:06:32.000Z</time>
</trkpt>
<trkpt lat="38.7579400" lon="-7.1950800">
<ele>157.794968</ele>
<time>2007-07-29T16:06:46.999Z</time>
</trkpt>
<trkpt lat="38.7579200" lon="-7.1950800">
<ele>164.988235</ele>
<time>2007-07-29T16:08:32.001Z</time>
</trkpt>
<trkpt lat="38.7577500" lon="-7.1949900">
<ele>163.555679</ele>
<time>2007-07-29T16:09:51.998Z</time>
</trkpt>
<trkpt lat="38.7577300" lon="-7.1949700">
<ele>162.123123</ele>
<time>2007-07-29T16:10:12.000Z</time>
</trkpt>
<trkpt lat="38.7576000" lon="-7.1948200">
<ele>160.202866</ele>
<time>2007-07-29T16:11:00.997Z</time>
</trkpt>
<trkpt lat="38.7576000" lon="-7.1948200">
<ele>154.899368</ele>
<time>2007-07-29T16:11:29.000Z</time>
</trkpt>
<trkpt lat="38.7574900" lon="-7.1946300">
<ele>158.282639</ele>
<time>2007-07-29T16:12:52.004Z</time>
</trkpt>
<trkpt lat="38.7571900" lon="-7.1941800">
<ele>161.635437</ele>
<time>2007-07-29T16:13:08.999Z</time>
</trkpt>
<trkpt lat="38.7571300" lon="-7.1940500">
<ele>163.067993</ele>
<time>2007-07-29T16:13:19.004Z</time>
</trkpt>
<trkpt lat="38.7571300" lon="-7.1940700">
<ele>165.475922</ele>
<time>2007-07-29T16:13:42.997Z</time>
</trkpt>
<trkpt lat="38.7569800" lon="-7.1939600">
<ele>165.475922</ele>
<time>2007-07-29T16:17:02.003Z</time>
</trkpt>
<trkpt lat="38.7564600" lon="-7.1938800">
<ele>169.316406</ele>
<time>2007-07-29T16:17:11.999Z</time>
</trkpt>
<trkpt lat="38.7564000" lon="-7.1938300">
<ele>172.212006</ele>
<time>2007-07-29T16:17:20.000Z</time>
</trkpt>
<trkpt lat="38.7563800" lon="-7.1938100">
<ele>172.699677</ele>
<time>2007-07-29T16:18:19.996Z</time>
</trkpt>
<trkpt lat="38.7563100" lon="-7.1937500">
<ele>173.644562</ele>
<time>2007-07-29T16:18:39.004Z</time>
</trkpt>
<trkpt lat="38.7561800" lon="-7.1936400">
<ele>173.187363</ele>
<time>2007-07-29T16:18:49.000Z</time>
</trkpt>
<trkpt lat="38.7560700" lon="-7.1934900">
<ele>173.187363</ele>
<time>2007-07-29T16:19:03.999Z</time>
</trkpt>
<trkpt lat="38.7559900" lon="-7.1934300">
<ele>174.619934</ele>
<time>2007-07-29T16:20:04.004Z</time>
</trkpt>
<trkpt lat="38.7559500" lon="-7.1933400">
<ele>172.212006</ele>
<time>2007-07-29T16:20:37.000Z</time>
</trkpt>
<trkpt lat="38.7558000" lon="-7.1930800">
<ele>169.804077</ele>
<time>2007-07-29T16:21:48.997Z</time>
</trkpt>
<trkpt lat="38.7555600" lon="-7.1927600">
<ele>168.371521</ele>
<time>2007-07-29T16:22:02.001Z</time>
</trkpt>
<trkpt lat="38.7553700" lon="-7.1925500">
<ele>168.371521</ele>
<time>2007-07-29T16:22:14.002Z</time>
</trkpt>
<trkpt lat="38.7550200" lon="-7.1921600">
<ele>164.988235</ele>
<time>2007-07-29T16:22:29.001Z</time>
</trkpt>
<trkpt lat="38.7549400" lon="-7.1921400">
<ele>166.938965</ele>
<time>2007-07-29T16:22:44.000Z</time>
</trkpt>
<trkpt lat="38.7548500" lon="-7.1920500">
<ele>166.938965</ele>
<time>2007-07-29T16:23:08.002Z</time>
</trkpt>
<trkpt lat="38.7548300" lon="-7.1920100">
<ele>161.147766</ele>
<time>2007-07-29T16:26:06.996Z</time>
</trkpt>
<trkpt lat="38.7547000" lon="-7.1919500">
<ele>161.635437</ele>
<time>2007-07-29T16:26:33.003Z</time>
</trkpt>
<trkpt lat="38.7545300" lon="-7.1917300">
<ele>163.067993</ele>
<time>2007-07-29T16:26:47.000Z</time>
</trkpt>
<trkpt lat="38.7544200" lon="-7.1913000">
<ele>165.475922</ele>
<time>2007-07-29T16:26:56.996Z</time>
</trkpt>
<trkpt lat="38.7543200" lon="-7.1907200">
<ele>166.938965</ele>
<time>2007-07-29T16:27:12.997Z</time>
</trkpt>
<trkpt lat="38.7541400" lon="-7.1903600">
<ele>167.396164</ele>
<time>2007-07-29T16:27:23.003Z</time>
</trkpt>
<trkpt lat="38.7539300" lon="-7.1902300">
<ele>168.371521</ele>
<time>2007-07-29T16:27:28.999Z</time>
</trkpt>
<trkpt lat="38.7538200" lon="-7.1902300">
<ele>170.291763</ele>
<time>2007-07-29T16:27:39.997Z</time>
</trkpt>
<trkpt lat="38.7537400" lon="-7.1902100">
<ele>171.724335</ele>
<time>2007-07-29T16:27:54.003Z</time>
</trkpt>
<trkpt lat="38.7537100" lon="-7.1902300">
<ele>171.267120</ele>
<time>2007-07-29T16:28:10.004Z</time>
</trkpt>
<trkpt lat="38.7535200" lon="-7.1903400">
<ele>169.804077</ele>
<time>2007-07-29T16:29:50.997Z</time>
</trkpt>
<trkpt lat="38.7532600" lon="-7.1906400">
<ele>172.212006</ele>
<time>2007-07-29T16:30:05.003Z</time>
</trkpt>
<trkpt lat="38.7530300" lon="-7.1908500">
<ele>174.132233</ele>
<time>2007-07-29T16:30:14.999Z</time>
</trkpt>
<trkpt lat="38.7529000" lon="-7.1912600">
<ele>175.564804</ele>
<time>2007-07-29T16:30:24.002Z</time>
</trkpt>
<trkpt lat="38.7528300" lon="-7.1916000">
<ele>176.052475</ele>
<time>2007-07-29T16:30:29.998Z</time>
</trkpt>
<trkpt lat="38.7527700" lon="-7.1920500">
<ele>181.356003</ele>
<time>2007-07-29T16:30:43.001Z</time>
</trkpt>
<trkpt lat="38.7527100" lon="-7.1921800">
<ele>188.549271</ele>
<time>2007-07-29T16:32:17.998Z</time>
</trkpt>
<trkpt lat="38.7527100" lon="-7.1922500">
<ele>188.061600</ele>
<time>2007-07-29T16:32:42.000Z</time>
</trkpt>
<trkpt lat="38.7527300" lon="-7.1924400">
<ele>187.604401</ele>
<time>2007-07-29T16:32:55.997Z</time>
</trkpt>
<trkpt lat="38.7527500" lon="-7.1925000">
<ele>186.629044</ele>
<time>2007-07-29T16:33:10.002Z</time>
</trkpt>
<trkpt lat="38.7527700" lon="-7.1927800">
<ele>188.061600</ele>
<time>2007-07-29T16:33:22.003Z</time>
</trkpt>
<trkpt lat="38.7527500" lon="-7.1928000">
<ele>187.604401</ele>
<time>2007-07-29T16:33:33.002Z</time>
</trkpt>
<trkpt lat="38.7527500" lon="-7.1930400">
<ele>187.604401</ele>
<time>2007-07-29T16:34:55.998Z</time>
</trkpt>
<trkpt lat="38.7527700" lon="-7.1935300">
<ele>184.221130</ele>
<time>2007-07-29T16:35:07.999Z</time>
</trkpt>
<trkpt lat="38.7530500" lon="-7.1940700">
<ele>180.868332</ele>
<time>2007-07-29T16:35:24.000Z</time>
</trkpt>
<trkpt lat="38.7530900" lon="-7.1940700">
<ele>180.868332</ele>
<time>2007-07-29T16:35:48.002Z</time>
</trkpt>
<trkpt lat="38.7531600" lon="-7.1942900">
<ele>179.892960</ele>
<time>2007-07-29T16:36:03.001Z</time>
</trkpt>
<trkpt lat="38.7531400" lon="-7.1942900">
<ele>178.460403</ele>
<time>2007-07-29T16:36:27.996Z</time>
</trkpt>
<trkpt lat="38.7532000" lon="-7.1945600">
<ele>178.460403</ele>
<time>2007-07-29T16:37:25.003Z</time>
</trkpt>
<trkpt lat="38.7532600" lon="-7.1948200">
<ele>179.435760</ele>
<time>2007-07-29T16:37:33.004Z</time>
</trkpt>
<trkpt lat="38.7534400" lon="-7.1954200">
<ele>178.948074</ele>
<time>2007-07-29T16:37:45.998Z</time>
</trkpt>
<trkpt lat="38.7533900" lon="-7.1957700">
<ele>176.540161</ele>
<time>2007-07-29T16:37:59.002Z</time>
</trkpt>
<trkpt lat="38.7533900" lon="-7.1958100">
<ele>178.460403</ele>
<time>2007-07-29T16:38:24.999Z</time>
</trkpt>
<trkpt lat="38.7533700" lon="-7.1959800">
<ele>178.460403</ele>
<time>2007-07-29T16:39:06.998Z</time>
</trkpt>
<trkpt lat="38.7534100" lon="-7.1964300">
<ele>174.132233</ele>
<time>2007-07-29T16:39:17.997Z</time>
</trkpt>
<trkpt lat="38.7535600" lon="-7.1968200">
<ele>169.804077</ele>
<time>2007-07-29T16:39:29.998Z</time>
</trkpt>
<trkpt lat="38.7536900" lon="-7.1970500">
<ele>166.938965</ele>
<time>2007-07-29T16:39:40.003Z</time>
</trkpt>
<trkpt lat="38.7537100" lon="-7.1972000">
<ele>164.531036</ele>
<time>2007-07-29T16:39:48.997Z</time>
</trkpt>
<trkpt lat="38.7536500" lon="-7.1974800">
<ele>162.123123</ele>
<time>2007-07-29T16:40:03.996Z</time>
</trkpt>
<trkpt lat="38.7536100" lon="-7.1975300">
<ele>161.147766</ele>
<time>2007-07-29T16:40:26.996Z</time>
</trkpt>
<trkpt lat="38.7536100" lon="-7.1975500">
<ele>161.635437</ele>
<time>2007-07-29T16:41:52.999Z</time>
</trkpt>
<trkpt lat="38.7536300" lon="-7.1975300">
<ele>159.715195</ele>
<time>2007-07-29T16:42:07.004Z</time>
</trkpt>
<trkpt lat="38.7533500" lon="-7.1977800">
<ele>158.282639</ele>
<time>2007-07-29T16:42:18.003Z</time>
</trkpt>
<trkpt lat="38.7526600" lon="-7.1982600">
<ele>157.794968</ele>
<time>2007-07-29T16:42:32.000Z</time>
</trkpt>
<trkpt lat="38.7524500" lon="-7.1984500">
<ele>157.307266</ele>
<time>2007-07-29T16:42:44.001Z</time>
</trkpt>
<trkpt lat="38.7523000" lon="-7.1985600">
<ele>157.794968</ele>
<time>2007-07-29T16:42:52.001Z</time>
</trkpt>
<trkpt lat="38.7522600" lon="-7.1985600">
<ele>157.307266</ele>
<time>2007-07-29T16:43:08.996Z</time>
</trkpt>
<trkpt lat="38.7522600" lon="-7.1985600">
<ele>156.819595</ele>
<time>2007-07-29T16:43:32.998Z</time>
</trkpt>
<trkpt lat="38.7520400" lon="-7.1987100">
<ele>156.362396</ele>
<time>2007-07-29T16:44:06.003Z</time>
</trkpt>
<trkpt lat="38.7518900" lon="-7.1988300">
<ele>155.874725</ele>
<time>2007-07-29T16:44:09.001Z</time>
</trkpt>
<trkpt lat="38.7517800" lon="-7.1989000">
<ele>155.874725</ele>
<time>2007-07-29T16:44:10.997Z</time>
</trkpt>
<trkpt lat="38.7515700" lon="-7.1990100">
<ele>157.307266</ele>
<time>2007-07-29T16:44:14.997Z</time>
</trkpt>
<trkpt lat="38.7508600" lon="-7.1995600">
<ele>156.819595</ele>
<time>2007-07-29T16:44:28.000Z</time>
</trkpt>
<trkpt lat="38.7507300" lon="-7.1997100">
<ele>155.874725</ele>
<time>2007-07-29T16:44:30.998Z</time>
</trkpt>
<trkpt lat="38.7504700" lon="-7.1998000">
<ele>155.874725</ele>
<time>2007-07-29T16:44:37.997Z</time>
</trkpt>
<trkpt lat="38.7503200" lon="-7.1998000">
<ele>158.282639</ele>
<time>2007-07-29T16:44:49.998Z</time>
</trkpt>
<trkpt lat="38.7503000" lon="-7.1998200">
<ele>158.739838</ele>
<time>2007-07-29T16:45:08.997Z</time>
</trkpt>
<trkpt lat="38.7502800" lon="-7.1998400">
<ele>160.202866</ele>
<time>2007-07-29T16:45:54.003Z</time>
</trkpt>
<trkpt lat="38.7501700" lon="-7.1999700">
<ele>161.147766</ele>
<time>2007-07-29T16:46:06.004Z</time>
</trkpt>
<trkpt lat="38.7499200" lon="-7.2004200">
<ele>162.610794</ele>
<time>2007-07-29T16:46:14.998Z</time>
</trkpt>
<trkpt lat="38.7497900" lon="-7.2005300">
<ele>162.610794</ele>
<time>2007-07-29T16:46:25.003Z</time>
</trkpt>
<trkpt lat="38.7497700" lon="-7.2004900">
<ele>168.859207</ele>
<time>2007-07-29T16:47:14.001Z</time>
</trkpt>
<trkpt lat="38.7496200" lon="-7.2006600">
<ele>168.859207</ele>
<time>2007-07-29T16:47:42.003Z</time>
</trkpt>
<trkpt lat="38.7492100" lon="-7.2011500">
<ele>164.531036</ele>
<time>2007-07-29T16:47:54.997Z</time>
</trkpt>
<trkpt lat="38.7485900" lon="-7.2017700">
<ele>162.610794</ele>
<time>2007-07-29T16:48:12.001Z</time>
</trkpt>
<trkpt lat="38.7483900" lon="-7.2020300">
<ele>161.635437</ele>
<time>2007-07-29T16:48:18.999Z</time>
</trkpt>
<trkpt lat="38.7478600" lon="-7.2024600">
<ele>162.123123</ele>
<time>2007-07-29T16:48:36.003Z</time>
</trkpt>
<trkpt lat="38.7477300" lon="-7.2024000">
<ele>161.635437</ele>
<time>2007-07-29T16:48:47.002Z</time>
</trkpt>
<trkpt lat="38.7475600" lon="-7.2021800">
<ele>160.690567</ele>
<time>2007-07-29T16:49:49.002Z</time>
</trkpt>
<trkpt lat="38.7474300" lon="-7.2022900">
<ele>160.202866</ele>
<time>2007-07-29T16:49:58.999Z</time>
</trkpt>
<trkpt lat="38.7474900" lon="-7.2025900">
<ele>160.202866</ele>
<time>2007-07-29T16:50:05.997Z</time>
</trkpt>
<trkpt lat="38.7474500" lon="-7.2031300">
<ele>159.227524</ele>
<time>2007-07-29T16:50:20.996Z</time>
</trkpt>
<trkpt lat="38.7473600" lon="-7.2033200">
<ele>158.282639</ele>
<time>2007-07-29T16:50:33.999Z</time>
</trkpt>
<trkpt lat="38.7470800" lon="-7.2036800">
<ele>158.282639</ele>
<time>2007-07-29T16:50:47.003Z</time>
</trkpt>
<trkpt lat="38.7468500" lon="-7.2040900">
<ele>156.362396</ele>
<time>2007-07-29T16:51:03.004Z</time>
</trkpt>
<trkpt lat="38.7467600" lon="-7.2042000">
<ele>157.794968</ele>
<time>2007-07-29T16:52:04.002Z</time>
</trkpt>
<trkpt lat="38.7465000" lon="-7.2043700">
<ele>158.282639</ele>
<time>2007-07-29T16:52:11.001Z</time>
</trkpt>
<trkpt lat="38.7463500" lon="-7.2045600">
<ele>158.739838</ele>
<time>2007-07-29T16:52:15.001Z</time>
</trkpt>
<trkpt lat="38.7458400" lon="-7.2052500">
<ele>157.794968</ele>
<time>2007-07-29T16:52:30.000Z</time>
</trkpt>
<trkpt lat="38.7457300" lon="-7.2053600">
<ele>157.307266</ele>
<time>2007-07-29T16:52:40.999Z</time>
</trkpt>
<trkpt lat="38.7456700" lon="-7.2053800">
<ele>158.739838</ele>
<time>2007-07-29T16:52:54.002Z</time>
</trkpt>
<trkpt lat="38.7456300" lon="-7.2054400">
<ele>159.715195</ele>
<time>2007-07-29T16:53:07.999Z</time>
</trkpt>
<trkpt lat="38.7454700" lon="-7.2055900">
<ele>160.690567</ele>
<time>2007-07-29T16:54:12.004Z</time>
</trkpt>
<trkpt lat="38.7452000" lon="-7.2060700">
<ele>160.202866</ele>
<time>2007-07-29T16:54:23.003Z</time>
</trkpt>
<trkpt lat="38.7450900" lon="-7.2061900">
<ele>160.202866</ele>
<time>2007-07-29T16:54:26.001Z</time>
</trkpt>
<trkpt lat="38.7445700" lon="-7.2067700">
<ele>160.202866</ele>
<time>2007-07-29T16:54:42.002Z</time>
</trkpt>
<trkpt lat="38.7445500" lon="-7.2068200">
<ele>160.690567</ele>
<time>2007-07-29T16:54:54.003Z</time>
</trkpt>
<trkpt lat="38.7444700" lon="-7.2069700">
<ele>161.147766</ele>
<time>2007-07-29T16:55:48.003Z</time>
</trkpt>
<trkpt lat="38.7441400" lon="-7.2073500">
<ele>161.147766</ele>
<time>2007-07-29T16:56:02.000Z</time>
</trkpt>
<trkpt lat="38.7439100" lon="-7.2075000">
<ele>160.690567</ele>
<time>2007-07-29T16:56:14.001Z</time>
</trkpt>
<trkpt lat="38.7438400" lon="-7.2078300">
<ele>162.123123</ele>
<time>2007-07-29T16:56:23.997Z</time>
</trkpt>
<trkpt lat="38.7436500" lon="-7.2083000">
<ele>161.147766</ele>
<time>2007-07-29T16:56:38.003Z</time>
</trkpt>
<trkpt lat="38.7434100" lon="-7.2085800">
<ele>162.123123</ele>
<time>2007-07-29T16:56:53.002Z</time>
</trkpt>
<trkpt lat="38.7433700" lon="-7.2085800">
<ele>163.067993</ele>
<time>2007-07-29T16:57:40.003Z</time>
</trkpt>
<trkpt lat="38.7433100" lon="-7.2086400">
<ele>163.555679</ele>
<time>2007-07-29T16:57:51.002Z</time>
</trkpt>
<trkpt lat="38.7431400" lon="-7.2088100">
<ele>164.043365</ele>
<time>2007-07-29T16:59:15.000Z</time>
</trkpt>
<trkpt lat="38.7430900" lon="-7.2088600">
<ele>164.988235</ele>
<time>2007-07-29T16:59:27.001Z</time>
</trkpt>
<trkpt lat="38.7430700" lon="-7.2088800">
<ele>164.043365</ele>
<time>2007-07-29T16:59:58.001Z</time>
</trkpt>
<trkpt lat="38.7430700" lon="-7.2088600">
<ele>163.555679</ele>
<time>2007-07-29T17:00:26.004Z</time>
</trkpt>
<trkpt lat="38.7429600" lon="-7.2089800">
<ele>162.610794</ele>
<time>2007-07-29T17:00:42.998Z</time>
</trkpt>
<trkpt lat="38.7429600" lon="-7.2090100">
<ele>161.635437</ele>
<time>2007-07-29T17:01:00.002Z</time>
</trkpt>
<trkpt lat="38.7429400" lon="-7.2090300">
<ele>159.227524</ele>
<time>2007-07-29T17:01:48.999Z</time>
</trkpt>
<trkpt lat="38.7427500" lon="-7.2092000">
<ele>159.715195</ele>
<time>2007-07-29T17:02:18.997Z</time>
</trkpt>
<trkpt lat="38.7427100" lon="-7.2092000">
<ele>160.690567</ele>
<time>2007-07-29T17:02:32.001Z</time>
</trkpt>
<trkpt lat="38.7427100" lon="-7.2092000">
<ele>161.635437</ele>
<time>2007-07-29T17:03:31.003Z</time>
</trkpt>
<trkpt lat="38.7425100" lon="-7.2091300">
<ele>162.123123</ele>
<time>2007-07-29T17:03:47.998Z</time>
</trkpt>
<trkpt lat="38.7424500" lon="-7.2090100">
<ele>162.123123</ele>
<time>2007-07-29T17:04:01.001Z</time>
</trkpt>
<trkpt lat="38.7424700" lon="-7.2090300">
<ele>160.690567</ele>
<time>2007-07-29T17:04:28.001Z</time>
</trkpt>
<trkpt lat="38.7425600" lon="-7.2091600">
<ele>161.147766</ele>
<time>2007-07-29T17:04:44.003Z</time>
</trkpt>
<trkpt lat="38.7425600" lon="-7.2091600">
<ele>160.690567</ele>
<time>2007-07-29T17:04:49.999Z</time>
</trkpt>
<trkpt lat="38.7425400" lon="-7.2091600">
<ele>160.690567</ele>
<time>2007-07-29T17:04:57.999Z</time>
</trkpt>
<trkpt lat="38.7425800" lon="-7.2091800">
<ele>163.067993</ele>
<time>2007-07-29T17:05:23.004Z</time>
</trkpt>
<trkpt lat="38.7425800" lon="-7.2091800">
<ele>163.555679</ele>
<time>2007-07-29T17:05:27.997Z</time>
</trkpt>
</trkseg>
<trkseg>
<trkpt lat="38.7427100" lon="-7.2091800">
<ele>154.442169</ele>
<time>2007-07-29T17:12:54.003Z</time>
</trkpt>
<trkpt lat="38.7427100" lon="-7.2091800">
<ele>155.874725</ele>
<time>2007-07-29T17:13:17.996Z</time>
</trkpt>
<trkpt lat="38.7424700" lon="-7.2090500">
<ele>157.794968</ele>
<time>2007-07-29T17:13:29.004Z</time>
</trkpt>
<trkpt lat="38.7423600" lon="-7.2089200">
<ele>156.362396</ele>
<time>2007-07-29T17:13:44.003Z</time>
</trkpt>
<trkpt lat="38.7422100" lon="-7.2089400">
<ele>157.794968</ele>
<time>2007-07-29T17:14:22.001Z</time>
</trkpt>
<trkpt lat="38.7421900" lon="-7.2090100">
<ele>158.739838</ele>
<time>2007-07-29T17:14:34.996Z</time>
</trkpt>
<trkpt lat="38.7421900" lon="-7.2092800">
<ele>158.739838</ele>
<time>2007-07-29T17:15:23.000Z</time>
</trkpt>
<trkpt lat="38.7422800" lon="-7.2097600">
<ele>159.715195</ele>
<time>2007-07-29T17:15:36.003Z</time>
</trkpt>
<trkpt lat="38.7421700" lon="-7.2100800">
<ele>159.227524</ele>
<time>2007-07-29T17:15:48.997Z</time>
</trkpt>
<trkpt lat="38.7417800" lon="-7.2101400">
<ele>158.282639</ele>
<time>2007-07-29T17:16:00.998Z</time>
</trkpt>
<trkpt lat="38.7417400" lon="-7.2101900">
<ele>156.362396</ele>
<time>2007-07-29T17:16:11.997Z</time>
</trkpt>
<trkpt lat="38.7417400" lon="-7.2102100">
<ele>151.058884</ele>
<time>2007-07-29T17:16:57.003Z</time>
</trkpt>
<trkpt lat="38.7414800" lon="-7.2102500">
<ele>154.899368</ele>
<time>2007-07-29T17:17:21.998Z</time>
</trkpt>
<trkpt lat="38.7414400" lon="-7.2102500">
<ele>155.387039</ele>
<time>2007-07-29T17:17:23.001Z</time>
</trkpt>
<trkpt lat="38.7412700" lon="-7.2102300">
<ele>155.387039</ele>
<time>2007-07-29T17:17:25.999Z</time>
</trkpt>
<trkpt lat="38.7409500" lon="-7.2101900">
<ele>156.819595</ele>
<time>2007-07-29T17:17:32.004Z</time>
</trkpt>
<trkpt lat="38.7407100" lon="-7.2101000">
<ele>157.307266</ele>
<time>2007-07-29T17:17:43.002Z</time>
</trkpt>
<trkpt lat="38.7407300" lon="-7.2101200">
<ele>157.307266</ele>
<time>2007-07-29T17:18:21.001Z</time>
</trkpt>
<trkpt lat="38.7408000" lon="-7.2101600">
<ele>158.739838</ele>
<time>2007-07-29T17:18:48.001Z</time>
</trkpt>
<trkpt lat="38.7407100" lon="-7.2101000">
<ele>159.227524</ele>
<time>2007-07-29T17:19:27.002Z</time>
</trkpt>
<trkpt lat="38.7407100" lon="-7.2101200">
<ele>159.227524</ele>
<time>2007-07-29T17:19:47.997Z</time>
</trkpt>
<trkpt lat="38.7407100" lon="-7.2101200">
<ele>158.282639</ele>
<time>2007-07-29T17:20:30.998Z</time>
</trkpt>
<trkpt lat="38.7405600" lon="-7.2101900">
<ele>158.739838</ele>
<time>2007-07-29T17:21:16.998Z</time>
</trkpt>
<trkpt lat="38.7406000" lon="-7.2105300">
<ele>159.227524</ele>
<time>2007-07-29T17:21:28.999Z</time>
</trkpt>
<trkpt lat="38.7406000" lon="-7.2105100">
<ele>158.282639</ele>
<time>2007-07-29T17:22:06.004Z</time>
</trkpt>
<trkpt lat="38.7406000" lon="-7.2106100">
<ele>159.715195</ele>
<time>2007-07-29T17:22:29.997Z</time>
</trkpt>
<trkpt lat="38.7406000" lon="-7.2106100">
<ele>159.227524</ele>
<time>2007-07-29T17:22:49.999Z</time>
</trkpt>
<trkpt lat="38.7405600" lon="-7.2107200">
<ele>161.147766</ele>
<time>2007-07-29T17:23:14.001Z</time>
</trkpt>
<trkpt lat="38.7403700" lon="-7.2108300">
<ele>164.531036</ele>
<time>2007-07-29T17:23:23.004Z</time>
</trkpt>
<trkpt lat="38.7403200" lon="-7.2107900">
<ele>165.475922</ele>
<time>2007-07-29T17:23:24.999Z</time>
</trkpt>
<trkpt lat="38.7399000" lon="-7.2103800">
<ele>165.963593</ele>
<time>2007-07-29T17:23:39.998Z</time>
</trkpt>
<trkpt lat="38.7390400" lon="-7.2101000">
<ele>169.316406</ele>
<time>2007-07-29T17:23:57.002Z</time>
</trkpt>
<trkpt lat="38.7384600" lon="-7.2099100">
<ele>170.779434</ele>
<time>2007-07-29T17:24:09.996Z</time>
</trkpt>
<trkpt lat="38.7384200" lon="-7.2098900">
<ele>171.724335</ele>
<time>2007-07-29T17:24:25.004Z</time>
</trkpt>
<trkpt lat="38.7383700" lon="-7.2098900">
<ele>171.724335</ele>
<time>2007-07-29T17:24:37.999Z</time>
</trkpt>
<trkpt lat="38.7381600" lon="-7.2100400">
<ele>172.212006</ele>
<time>2007-07-29T17:26:00.001Z</time>
</trkpt>
<trkpt lat="38.7375400" lon="-7.2107400">
<ele>170.779434</ele>
<time>2007-07-29T17:26:20.003Z</time>
</trkpt>
<trkpt lat="38.7372800" lon="-7.2112400">
<ele>169.316406</ele>
<time>2007-07-29T17:26:28.997Z</time>
</trkpt>
<trkpt lat="38.7372600" lon="-7.2118600">
<ele>169.316406</ele>
<time>2007-07-29T17:26:40.998Z</time>
</trkpt>
<trkpt lat="38.7372800" lon="-7.2122500">
<ele>169.316406</ele>
<time>2007-07-29T17:26:55.003Z</time>
</trkpt>
<trkpt lat="38.7372800" lon="-7.2126100">
<ele>169.804077</ele>
<time>2007-07-29T17:28:08.003Z</time>
</trkpt>
<trkpt lat="38.7372600" lon="-7.2134300">
<ele>171.724335</ele>
<time>2007-07-29T17:28:17.999Z</time>
</trkpt>
<trkpt lat="38.7370600" lon="-7.2145400">
<ele>169.804077</ele>
<time>2007-07-29T17:28:34.000Z</time>
</trkpt>
<trkpt lat="38.7368500" lon="-7.2152700">
<ele>167.396164</ele>
<time>2007-07-29T17:28:47.997Z</time>
</trkpt>
<trkpt lat="38.7368700" lon="-7.2152700">
<ele>166.938965</ele>
<time>2007-07-29T17:29:09.001Z</time>
</trkpt>
<trkpt lat="38.7367600" lon="-7.2154600">
<ele>165.963593</ele>
<time>2007-07-29T17:29:44.002Z</time>
</trkpt>
<trkpt lat="38.7362500" lon="-7.2164300">
<ele>165.963593</ele>
<time>2007-07-29T17:30:00.003Z</time>
</trkpt>
<trkpt lat="38.7358600" lon="-7.2170900">
<ele>164.531036</ele>
<time>2007-07-29T17:30:15.002Z</time>
</trkpt>
<trkpt lat="38.7355400" lon="-7.2174400">
<ele>165.963593</ele>
<time>2007-07-29T17:30:27.996Z</time>
</trkpt>
<trkpt lat="38.7349600" lon="-7.2179500">
<ele>166.451279</ele>
<time>2007-07-29T17:30:43.998Z</time>
</trkpt>
<trkpt lat="38.7348500" lon="-7.2180200">
<ele>166.938965</ele>
<time>2007-07-29T17:30:54.003Z</time>
</trkpt>
<trkpt lat="38.7348100" lon="-7.2180400">
<ele>167.396164</ele>
<time>2007-07-29T17:31:59.002Z</time>
</trkpt>
<trkpt lat="38.7344000" lon="-7.2182500">
<ele>166.938965</ele>
<time>2007-07-29T17:32:07.996Z</time>
</trkpt>
<trkpt lat="38.7342300" lon="-7.2183400">
<ele>166.938965</ele>
<time>2007-07-29T17:32:11.996Z</time>
</trkpt>
<trkpt lat="38.7341200" lon="-7.2184900">
<ele>166.938965</ele>
<time>2007-07-29T17:32:15.996Z</time>
</trkpt>
<trkpt lat="38.7340600" lon="-7.2186600">
<ele>166.451279</ele>
<time>2007-07-29T17:32:19.003Z</time>
</trkpt>
<trkpt lat="38.7339300" lon="-7.2187900">
<ele>165.475922</ele>
<time>2007-07-29T17:32:23.004Z</time>
</trkpt>
<trkpt lat="38.7336300" lon="-7.2187500">
<ele>166.451279</ele>
<time>2007-07-29T17:32:33.000Z</time>
</trkpt>
<trkpt lat="38.7332000" lon="-7.2185300">
<ele>165.475922</ele>
<time>2007-07-29T17:32:49.001Z</time>
</trkpt>
<trkpt lat="38.7331800" lon="-7.2185300">
<ele>164.988235</ele>
<time>2007-07-29T17:33:01.996Z</time>
</trkpt>
<trkpt lat="38.7329000" lon="-7.2186800">
<ele>164.531036</ele>
<time>2007-07-29T17:34:11.004Z</time>
</trkpt>
<trkpt lat="38.7324900" lon="-7.2189200">
<ele>163.555679</ele>
<time>2007-07-29T17:34:21.000Z</time>
</trkpt>
<trkpt lat="38.7322400" lon="-7.2190700">
<ele>164.531036</ele>
<time>2007-07-29T17:34:25.000Z</time>
</trkpt>
<trkpt lat="38.7312700" lon="-7.2196300">
<ele>166.451279</ele>
<time>2007-07-29T17:34:35.999Z</time>
</trkpt>
<trkpt lat="38.7305000" lon="-7.2200600">
<ele>166.938965</ele>
<time>2007-07-29T17:34:46.998Z</time>
</trkpt>
<trkpt lat="38.7300900" lon="-7.2203100">
<ele>167.396164</ele>
<time>2007-07-29T17:35:00.001Z</time>
</trkpt>
<trkpt lat="38.7300900" lon="-7.2203100">
<ele>166.938965</ele>
<time>2007-07-29T17:35:29.999Z</time>
</trkpt>
<trkpt lat="38.7300700" lon="-7.2203400">
<ele>166.451279</ele>
<time>2007-07-29T17:36:29.002Z</time>
</trkpt>
<trkpt lat="38.7298500" lon="-7.2204200">
<ele>166.451279</ele>
<time>2007-07-29T17:36:37.002Z</time>
</trkpt>
<trkpt lat="38.7297500" lon="-7.2204600">
<ele>167.396164</ele>
<time>2007-07-29T17:36:50.999Z</time>
</trkpt>
<trkpt lat="38.7297200" lon="-7.2204600">
<ele>169.316406</ele>
<time>2007-07-29T17:37:20.004Z</time>
</trkpt>
<trkpt lat="38.7296800" lon="-7.2203400">
<ele>168.859207</ele>
<time>2007-07-29T17:37:31.002Z</time>
</trkpt>
<trkpt lat="38.7296800" lon="-7.2202700">
<ele>167.396164</ele>
<time>2007-07-29T17:37:43.997Z</time>
</trkpt>
<trkpt lat="38.7296800" lon="-7.2202900">
<ele>166.938965</ele>
<time>2007-07-29T17:38:18.997Z</time>
</trkpt>
<trkpt lat="38.7296800" lon="-7.2203400">
<ele>167.396164</ele>
<time>2007-07-29T17:38:37.003Z</time>
</trkpt>
<trkpt lat="38.7296800" lon="-7.2203400">
<ele>167.883835</ele>
<time>2007-07-29T17:39:23.996Z</time>
</trkpt>
<trkpt lat="38.7297000" lon="-7.2203100">
<ele>168.371521</ele>
<time>2007-07-29T17:40:09.002Z</time>
</trkpt>
<trkpt lat="38.7296600" lon="-7.2202100">
<ele>167.396164</ele>
<time>2007-07-29T17:40:24.001Z</time>
</trkpt>
<trkpt lat="38.7295700" lon="-7.2199100">
<ele>166.451279</ele>
<time>2007-07-29T17:40:49.999Z</time>
</trkpt>
<trkpt lat="38.7293000" lon="-7.2191100">
<ele>166.938965</ele>
<time>2007-07-29T17:40:57.999Z</time>
</trkpt>
<trkpt lat="38.7291000" lon="-7.2185300">
<ele>166.938965</ele>
<time>2007-07-29T17:41:06.000Z</time>
</trkpt>
<trkpt lat="38.7290800" lon="-7.2184700">
<ele>166.451279</ele>
<time>2007-07-29T17:41:16.999Z</time>
</trkpt>
<trkpt lat="38.7290400" lon="-7.2183800">
<ele>166.451279</ele>
<time>2007-07-29T17:42:05.996Z</time>
</trkpt>
<trkpt lat="38.7290200" lon="-7.2183400">
<ele>165.475922</ele>
<time>2007-07-29T17:42:44.004Z</time>
</trkpt>
<trkpt lat="38.7289500" lon="-7.2181200">
<ele>166.451279</ele>
<time>2007-07-29T17:43:10.001Z</time>
</trkpt>
<trkpt lat="38.7288700" lon="-7.2178900">
<ele>166.938965</ele>
<time>2007-07-29T17:43:30.003Z</time>
</trkpt>
<trkpt lat="38.7284200" lon="-7.2168600">
<ele>169.316406</ele>
<time>2007-07-29T17:43:44.000Z</time>
</trkpt>
<trkpt lat="38.7274700" lon="-7.2152500">
<ele>176.540161</ele>
<time>2007-07-29T17:44:05.004Z</time>
</trkpt>
<trkpt lat="38.7268900" lon="-7.2146300">
<ele>180.868332</ele>
<time>2007-07-29T17:44:19.000Z</time>
</trkpt>
<trkpt lat="38.7268900" lon="-7.2146300">
<ele>182.300873</ele>
<time>2007-07-29T17:44:54.001Z</time>
</trkpt>
<trkpt lat="38.7267400" lon="-7.2144600">
<ele>181.356003</ele>
<time>2007-07-29T17:46:09.998Z</time>
</trkpt>
<trkpt lat="38.7267400" lon="-7.2144600">
<ele>181.813202</ele>
<time>2007-07-29T17:46:23.002Z</time>
</trkpt>
<trkpt lat="38.7266800" lon="-7.2143700">
<ele>179.435760</ele>
<time>2007-07-29T17:49:02.997Z</time>
</trkpt>
<trkpt lat="38.7263300" lon="-7.2139200">
<ele>181.813202</ele>
<time>2007-07-29T17:49:13.002Z</time>
</trkpt>
<trkpt lat="38.7261800" lon="-7.2137300">
<ele>183.276230</ele>
<time>2007-07-29T17:49:22.999Z</time>
</trkpt>
<trkpt lat="38.7261800" lon="-7.2137300">
<ele>183.276230</ele>
<time>2007-07-29T17:49:36.002Z</time>
</trkpt>
<trkpt lat="38.7261800" lon="-7.2137300">
<ele>183.276230</ele>
<time>2007-07-29T17:49:57.999Z</time>
</trkpt>
<trkpt lat="38.7261800" lon="-7.2137300">
<ele>181.813202</ele>
<time>2007-07-29T17:50:30.002Z</time>
</trkpt>
<trkpt lat="38.7261800" lon="-7.2137300">
<ele>182.300873</ele>
<time>2007-07-29T17:50:56.000Z</time>
</trkpt>
<trkpt lat="38.7261800" lon="-7.2137300">
<ele>180.380630</ele>
<time>2007-07-29T17:53:33.999Z</time>
</trkpt>
<trkpt lat="38.7261200" lon="-7.2136000">
<ele>182.300873</ele>
<time>2007-07-29T17:53:47.003Z</time>
</trkpt>
<trkpt lat="38.7261600" lon="-7.2134900">
<ele>182.300873</ele>
<time>2007-07-29T17:54:03.004Z</time>
</trkpt>
<trkpt lat="38.7262100" lon="-7.2132300">
<ele>183.763931</ele>
<time>2007-07-29T17:57:49.000Z</time>
</trkpt>
<trkpt lat="38.7262900" lon="-7.2127800">
<ele>183.763931</ele>
<time>2007-07-29T17:57:58.997Z</time>
</trkpt>
<trkpt lat="38.7265900" lon="-7.2115600">
<ele>181.813202</ele>
<time>2007-07-29T17:58:16.000Z</time>
</trkpt>
<trkpt lat="38.7267900" lon="-7.2108100">
<ele>181.813202</ele>
<time>2007-07-29T17:58:29.997Z</time>
</trkpt>
<trkpt lat="38.7269100" lon="-7.2103600">
<ele>182.300873</ele>
<time>2007-07-29T17:58:39.000Z</time>
</trkpt>
<trkpt lat="38.7272400" lon="-7.2093700">
<ele>185.196472</ele>
<time>2007-07-29T17:58:55.001Z</time>
</trkpt>
<trkpt lat="38.7277700" lon="-7.2079800">
<ele>189.036957</ele>
<time>2007-07-29T17:59:16.999Z</time>
</trkpt>
<trkpt lat="38.7283100" lon="-7.2066900">
<ele>192.877441</ele>
<time>2007-07-29T17:59:35.998Z</time>
</trkpt>
<trkpt lat="38.7285900" lon="-7.2059400">
<ele>195.773041</ele>
<time>2007-07-29T17:59:50.004Z</time>
</trkpt>
<trkpt lat="38.7287200" lon="-7.2056400">
<ele>196.260727</ele>
<time>2007-07-29T17:59:58.998Z</time>
</trkpt>
<trkpt lat="38.7290200" lon="-7.2053800">
<ele>199.125839</ele>
<time>2007-07-29T18:00:05.996Z</time>
</trkpt>
<trkpt lat="38.7296200" lon="-7.2050600">
<ele>197.205597</ele>
<time>2007-07-29T18:00:21.004Z</time>
</trkpt>
<trkpt lat="38.7302200" lon="-7.2047100">
<ele>196.717926</ele>
<time>2007-07-29T18:00:37.999Z</time>
</trkpt>
<trkpt lat="38.7307100" lon="-7.2043100">
<ele>194.797668</ele>
<time>2007-07-29T18:00:51.002Z</time>
</trkpt>
<trkpt lat="38.7309900" lon="-7.2040500">
<ele>195.285370</ele>
<time>2007-07-29T18:00:59.003Z</time>
</trkpt>
<trkpt lat="38.7313600" lon="-7.2037500">
<ele>196.717926</ele>
<time>2007-07-29T18:01:04.999Z</time>
</trkpt>
<trkpt lat="38.7315500" lon="-7.2037300">
<ele>197.205597</ele>
<time>2007-07-29T18:01:14.002Z</time>
</trkpt>
<trkpt lat="38.7315500" lon="-7.2037500">
<ele>198.638168</ele>
<time>2007-07-29T18:02:32.004Z</time>
</trkpt>
<trkpt lat="38.7316100" lon="-7.2037300">
<ele>198.180969</ele>
<time>2007-07-29T18:02:55.003Z</time>
</trkpt>
<trkpt lat="38.7316600" lon="-7.2036600">
<ele>200.558395</ele>
<time>2007-07-29T18:04:16.997Z</time>
</trkpt>
<trkpt lat="38.7316800" lon="-7.2036200">
<ele>199.125839</ele>
<time>2007-07-29T18:04:40.999Z</time>
</trkpt>
<trkpt lat="38.7317000" lon="-7.2035800">
<ele>198.180969</ele>
<time>2007-07-29T18:05:02.003Z</time>
</trkpt>
<trkpt lat="38.7318700" lon="-7.2033200">
<ele>195.773041</ele>
<time>2007-07-29T18:05:10.997Z</time>
</trkpt>
<trkpt lat="38.7325600" lon="-7.2024000">
<ele>191.444870</ele>
<time>2007-07-29T18:05:25.996Z</time>
</trkpt>
<trkpt lat="38.7333300" lon="-7.2013700">
<ele>187.116730</ele>
<time>2007-07-29T18:05:42.999Z</time>
</trkpt>
<trkpt lat="38.7335900" lon="-7.2009800">
<ele>186.629044</ele>
<time>2007-07-29T18:05:55.000Z</time>
</trkpt>
<trkpt lat="38.7336900" lon="-7.2008700">
<ele>187.604401</ele>
<time>2007-07-29T18:07:08.000Z</time>
</trkpt>
<trkpt lat="38.7341000" lon="-7.2002900">
<ele>185.196472</ele>
<time>2007-07-29T18:07:17.996Z</time>
</trkpt>
<trkpt lat="38.7347700" lon="-7.1993900">
<ele>184.221130</ele>
<time>2007-07-29T18:07:33.004Z</time>
</trkpt>
<trkpt lat="38.7349800" lon="-7.1990300">
<ele>183.276230</ele>
<time>2007-07-29T18:07:41.998Z</time>
</trkpt>
<trkpt lat="38.7349800" lon="-7.1990300">
<ele>182.300873</ele>
<time>2007-07-29T18:08:11.003Z</time>
</trkpt>
<trkpt lat="38.7350700" lon="-7.1988800">
<ele>181.813202</ele>
<time>2007-07-29T18:08:43.999Z</time>
</trkpt>
<trkpt lat="38.7353700" lon="-7.1980400">
<ele>184.708801</ele>
<time>2007-07-29T18:08:54.997Z</time>
</trkpt>
<trkpt lat="38.7358200" lon="-7.1968000">
<ele>189.036957</ele>
<time>2007-07-29T18:09:08.001Z</time>
</trkpt>
<trkpt lat="38.7362100" lon="-7.1957000">
<ele>191.932556</ele>
<time>2007-07-29T18:09:21.997Z</time>
</trkpt>
<trkpt lat="38.7365700" lon="-7.1946700">
<ele>192.877441</ele>
<time>2007-07-29T18:09:36.996Z</time>
</trkpt>
<trkpt lat="38.7365900" lon="-7.1945900">
<ele>193.852798</ele>
<time>2007-07-29T18:09:44.997Z</time>
</trkpt>
<trkpt lat="38.7367000" lon="-7.1943700">
<ele>195.773041</ele>
<time>2007-07-29T18:09:58.000Z</time>
</trkpt>
<trkpt lat="38.7368100" lon="-7.1940900">
<ele>197.205597</ele>
<time>2007-07-29T18:10:39.999Z</time>
</trkpt>
<trkpt lat="38.7371300" lon="-7.1931900">
<ele>202.509125</ele>
<time>2007-07-29T18:10:52.000Z</time>
</trkpt>
<trkpt lat="38.7375600" lon="-7.1921200">
<ele>209.214722</ele>
<time>2007-07-29T18:11:05.004Z</time>
</trkpt>
<trkpt lat="38.7381600" lon="-7.1906200">
<ele>212.598007</ele>
<time>2007-07-29T18:11:21.998Z</time>
</trkpt>
<trkpt lat="38.7386700" lon="-7.1893100">
<ele>204.429367</ele>
<time>2007-07-29T18:11:38.000Z</time>
</trkpt>
<trkpt lat="38.7388900" lon="-7.1887900">
<ele>203.453995</ele>
<time>2007-07-29T18:11:47.996Z</time>
</trkpt>
<trkpt lat="38.7390200" lon="-7.1884700">
<ele>204.886566</ele>
<time>2007-07-29T18:12:59.000Z</time>
</trkpt>
<trkpt lat="38.7394200" lon="-7.1875300">
<ele>211.622635</ele>
<time>2007-07-29T18:13:09.998Z</time>
</trkpt>
<trkpt lat="38.7400500" lon="-7.1860000">
<ele>212.598007</ele>
<time>2007-07-29T18:13:26.000Z</time>
</trkpt>
<trkpt lat="38.7407100" lon="-7.1843700">
<ele>206.349594</ele>
<time>2007-07-29T18:13:43.003Z</time>
</trkpt>
<trkpt lat="38.7410500" lon="-7.1834300">
<ele>203.453995</ele>
<time>2007-07-29T18:13:55.998Z</time>
</trkpt>
<trkpt lat="38.7410800" lon="-7.1834100">
<ele>202.966324</ele>
<time>2007-07-29T18:14:06.003Z</time>
</trkpt>
<trkpt lat="38.7411600" lon="-7.1832600">
<ele>205.374237</ele>
<time>2007-07-29T18:14:56.003Z</time>
</trkpt>
<trkpt lat="38.7415100" lon="-7.1824800">
<ele>209.702393</ele>
<time>2007-07-29T18:15:08.004Z</time>
</trkpt>
<trkpt lat="38.7420000" lon="-7.1813000">
<ele>207.782166</ele>
<time>2007-07-29T18:15:20.998Z</time>
</trkpt>
<trkpt lat="38.7422100" lon="-7.1807700">
<ele>205.861923</ele>
<time>2007-07-29T18:15:27.996Z</time>
</trkpt>
<trkpt lat="38.7424100" lon="-7.1807200">
<ele>204.429367</ele>
<time>2007-07-29T18:15:34.001Z</time>
</trkpt>
<trkpt lat="38.7427900" lon="-7.1812400">
<ele>206.806793</ele>
<time>2007-07-29T18:15:43.998Z</time>
</trkpt>
<trkpt lat="38.7437800" lon="-7.1825100">
<ele>213.055206</ele>
<time>2007-07-29T18:15:59.999Z</time>
</trkpt>
<trkpt lat="38.7446400" lon="-7.1835600">
<ele>213.055206</ele>
<time>2007-07-29T18:16:14.998Z</time>
</trkpt>
<trkpt lat="38.7453700" lon="-7.1844600">
<ele>212.110321</ele>
<time>2007-07-29T18:16:28.001Z</time>
</trkpt>
<trkpt lat="38.7462000" lon="-7.1855300">
<ele>209.702393</ele>
<time>2007-07-29T18:16:41.998Z</time>
</trkpt>
<trkpt lat="38.7463300" lon="-7.1857000">
<ele>207.294479</ele>
<time>2007-07-29T18:16:49.999Z</time>
</trkpt>
<trkpt lat="38.7464400" lon="-7.1858300">
<ele>205.374237</ele>
<time>2007-07-29T18:17:04.004Z</time>
</trkpt>
<trkpt lat="38.7465000" lon="-7.1859000">
<ele>203.453995</ele>
<time>2007-07-29T18:17:18.001Z</time>
</trkpt>
<trkpt lat="38.7465700" lon="-7.1859600">
<ele>203.453995</ele>
<time>2007-07-29T18:17:35.998Z</time>
</trkpt>
<trkpt lat="38.7467600" lon="-7.1860900">
<ele>205.861923</ele>
<time>2007-07-29T18:18:13.003Z</time>
</trkpt>
<trkpt lat="38.7476000" lon="-7.1865600">
<ele>201.533768</ele>
<time>2007-07-29T18:18:25.998Z</time>
</trkpt>
<trkpt lat="38.7481800" lon="-7.1872500">
<ele>195.285370</ele>
<time>2007-07-29T18:18:40.997Z</time>
</trkpt>
<trkpt lat="38.7482600" lon="-7.1874000">
<ele>194.309998</ele>
<time>2007-07-29T18:18:51.002Z</time>
</trkpt>
<trkpt lat="38.7483100" lon="-7.1874600">
<ele>194.797668</ele>
<time>2007-07-29T18:20:23.001Z</time>
</trkpt>
<trkpt lat="38.7487100" lon="-7.1881500">
<ele>190.469528</ele>
<time>2007-07-29T18:20:35.002Z</time>
</trkpt>
<trkpt lat="38.7494200" lon="-7.1893100">
<ele>184.708801</ele>
<time>2007-07-29T18:20:52.999Z</time>
</trkpt>
<trkpt lat="38.7499800" lon="-7.1900600">
<ele>183.276230</ele>
<time>2007-07-29T18:21:02.002Z</time>
</trkpt>
<trkpt lat="38.7503500" lon="-7.1905100">
<ele>182.300873</ele>
<time>2007-07-29T18:21:10.002Z</time>
</trkpt>
<trkpt lat="38.7508600" lon="-7.1911700">
<ele>181.813202</ele>
<time>2007-07-29T18:21:22.003Z</time>
</trkpt>
<trkpt lat="38.7511600" lon="-7.1915200">
<ele>182.300873</ele>
<time>2007-07-29T18:21:29.002Z</time>
</trkpt>
<trkpt lat="38.7514800" lon="-7.1916500">
<ele>182.300873</ele>
<time>2007-07-29T18:21:34.998Z</time>
</trkpt>
<trkpt lat="38.7523600" lon="-7.1918800">
<ele>182.788559</ele>
<time>2007-07-29T18:21:48.001Z</time>
</trkpt>
<trkpt lat="38.7525800" lon="-7.1920300">
<ele>184.221130</ele>
<time>2007-07-29T18:21:53.004Z</time>
</trkpt>
<trkpt lat="38.7527300" lon="-7.1922300">
<ele>184.708801</ele>
<time>2007-07-29T18:22:03.000Z</time>
</trkpt>
<trkpt lat="38.7527300" lon="-7.1922000">
<ele>185.684158</ele>
<time>2007-07-29T18:22:15.001Z</time>
</trkpt>
</trkseg>
</trk>
</gpx>
